Observation data for Coyanosa on 05/15/2018      Previous  Date  Next       Current Mesonet Observations  Soil Data  Daily Summary Page  Observations in Plain Language
KCO1 150500Z 11008KT 22/12 A2992 RMK A01 T02220124  RH  054%=      5-min Rain = 0
KCO1 150501Z 11007KT 22/12 A2992 RMK A01 T02220124  RH  054%=      5-min Rain = 0
KCO1 150502Z 11008KT 22/12 A2992 RMK A01 T02210123  RH  054%=      5-min Rain = 0
KCO1 150503Z 11007KT 22/12 A2992 RMK A01 T02190122  RH  054%=      5-min Rain = 0
KCO1 150504Z 11007KT 22/12 A2992 RMK A01 T02180122  RH  054%=      5-min Rain = 0
KCO1 150505Z 11007KT 22/12 A2992 RMK A01 T02180122  RH  054%=      5-min Rain = 0
KCO1 150506Z 11008KT 22/12 A2992 RMK A01 T02180122  RH  054%=      5-min Rain = 0
KCO1 150507Z 11007KT 22/12 A2993 RMK A01 T02180122  RH  054%=      5-min Rain = 0
KCO1 150508Z 10008KT 22/12 A2993 RMK A01 T02180122  RH  054%=      5-min Rain = 0
KCO1 150509Z 09007KT 22/12 A2993 RMK A01 T02170122  RH  054%=      5-min Rain = 0
KCO1 150510Z 09009KT 22/12 A2993 RMK A01 T02180122  RH  054%=      5-min Rain = 0
KCO1 150511Z 08009KT 22/12 A2993 RMK A01 T02180122  RH  054%=      5-min Rain = 0
KCO1 150512Z 08010KT 22/12 A2993 RMK A01 T02170121  RH  055%=      5-min Rain = 0
KCO1 150513Z 09009KT 22/12 A2993 RMK A01 T02160121  RH  055%=      5-min Rain = 0
KCO1 150514Z 09010KT 22/12 A2993 RMK A01 T02150121  RH  055%=      5-min Rain = 0
KCO1 150515Z 09011KT 22/12 A2993 RMK A01 T02150122  RH  055%=      5-min Rain = 0
KCO1 150516Z 09010KT 22/12 A2993 RMK A01 T02160122  RH  055%=      5-min Rain = 0
KCO1 150517Z 10010KT 22/12 A2993 RMK A01 T02160122  RH  055%=      5-min Rain = 0
KCO1 150518Z 10009KT 22/12 A2993 RMK A01 T02160122  RH  055%=      5-min Rain = 0
KCO1 150519Z 10009KT 22/12 A2993 RMK A01 T02160122  RH  055%=      5-min Rain = 0
KCO1 150520Z 11009KT 22/12 A2993 RMK A01 T02160122  RH  055%=      5-min Rain = 0
KCO1 150521Z 10010KT 22/12 A2993 RMK A01 T02160122  RH  055%=      5-min Rain = 0
KCO1 150522Z 10009KT 22/12 A2993 RMK A01 T02160122  RH  055%=      5-min Rain = 0
KCO1 150523Z 11008KT 22/12 A2993 RMK A01 T02160122  RH  055%=      5-min Rain = 0
KCO1 150524Z 10009KT 22/12 A2993 RMK A01 T02160122  RH  055%=      5-min Rain = 0
KCO1 150525Z 10008KT 22/12 A2993 RMK A01 T02160122  RH  055%=      5-min Rain = 0
KCO1 150526Z 10008KT 22/12 A2993 RMK A01 T02150122  RH  055%=      5-min Rain = 0
KCO1 150527Z 10008KT 21/12 A2993 RMK A01 T02140121  RH  055%=      5-min Rain = 0
KCO1 150528Z 10007KT 21/12 A2993 RMK A01 T02140121  RH  056%=      5-min Rain = 0
KCO1 150529Z 10008KT 21/12 A2993 RMK A01 T02140121  RH  056%=      5-min Rain = 0
KCO1 150530Z 11009KT 21/12 A2993 RMK A01 T02130121  RH  056%=      5-min Rain = 0
KCO1 150531Z 11009KT 21/12 A2994 RMK A01 T02130121  RH  056%=      5-min Rain = 0
KCO1 150532Z 10009KT 21/12 A2994 RMK A01 T02130122  RH  056%=      5-min Rain = 0
KCO1 150533Z 10009KT 21/12 A2994 RMK A01 T02130122  RH  056%=      5-min Rain = 0
KCO1 150534Z 10009KT 21/12 A2994 RMK A01 T02130122  RH  056%=      5-min Rain = 0
KCO1 150535Z 10009KT 21/12 A2994 RMK A01 T02120122  RH  056%=      5-min Rain = 0
KCO1 150536Z 10008KT 21/12 A2994 RMK A01 T02120122  RH  056%=      5-min Rain = 0
KCO1 150537Z 10009KT 21/12 A2994 RMK A01 T02120123  RH  057%=      5-min Rain = 0
KCO1 150538Z 10009KT 21/12 A2994 RMK A01 T02110122  RH  057%=      5-min Rain = 0
KCO1 150539Z 11009KT 21/12 A2994 RMK A01 T02110123  RH  057%=      5-min Rain = 0
KCO1 150540Z 12008KT 21/12 A2993 RMK A01 T02110123  RH  057%=      5-min Rain = 0
KCO1 150541Z 12010KT 21/12 A2993 RMK A01 T02110124  RH  057%=      5-min Rain = 0
KCO1 150542Z 11009KT 21/12 A2993 RMK A01 T02120124  RH  057%=      5-min Rain = 0
KCO1 150543Z 11009KT 21/12 A2994 RMK A01 T02120124  RH  057%=      5-min Rain = 0
KCO1 150544Z 11009KT 21/12 A2994 RMK A01 T02110124  RH  057%=      5-min Rain = 0
KCO1 150545Z 10009KT 21/12 A2994 RMK A01 T02110124  RH  057%=      5-min Rain = 0
KCO1 150546Z 10011KT 21/12 A2994 RMK A01 T02110124  RH  058%=      5-min Rain = 0
KCO1 150547Z 10010KT 21/13 A2994 RMK A01 T02110125  RH  058%=      5-min Rain = 0
KCO1 150548Z 10010KT 21/13 A2994 RMK A01 T02110126  RH  058%=      5-min Rain = 0
KCO1 150549Z 10010KT 21/13 A2994 RMK A01 T02110126  RH  058%=      5-min Rain = 0
KCO1 150550Z 10010KT 21/13 A2994 RMK A01 T02110127  RH  059%=      5-min Rain = 0
KCO1 150551Z 10009KT 21/13 A2994 RMK A01 T02100127  RH  059%=      5-min Rain = 0
KCO1 150552Z 10008KT 21/13 A2994 RMK A01 T02100128  RH  059%=      5-min Rain = 0
KCO1 150553Z 10008KT 21/13 A2994 RMK A01 T02100128  RH  059%=      5-min Rain = 0
KCO1 150554Z 11008KT 21/13 A2994 RMK A01 T02100128  RH  060%=      5-min Rain = 0
KCO1 150555Z 11009KT 21/13 A2994 RMK A01 T02100129  RH  060%=      5-min Rain = 0
KCO1 150556Z 11008KT 21/13 A2994 RMK A01 T02090129  RH  060%=      5-min Rain = 0
KCO1 150557Z 10009KT 21/13 A2994 RMK A01 T02090130  RH  060%=      5-min Rain = 0
KCO1 150558Z 11009KT 21/13 A2994 RMK A01 T02100130  RH  060%=      5-min Rain = 0
KCO1 150559Z 11008KT 21/13 A2994 RMK A01 T02100131  RH  060%=      5-min Rain = 0
KCO1 150600Z 11008KT 21/13 A2994 RMK A01 T02100131  RH  060%=      5-min Rain = 0
KCO1 150601Z 11007KT 21/13 A2994 RMK A01 T02090130  RH  060%=      5-min Rain = 0
KCO1 150602Z 11008KT 21/13 A2994 RMK A01 T02090130  RH  061%=      5-min Rain = 0
KCO1 150603Z 11008KT 21/13 A2994 RMK A01 T02090131  RH  061%=      5-min Rain = 0
KCO1 150604Z 11008KT 21/13 A2994 RMK A01 T02090131  RH  061%=      5-min Rain = 0
KCO1 150605Z 11007KT 21/13 A2994 RMK A01 T02090131  RH  061%=      5-min Rain = 0
KCO1 150606Z 11008KT 21/13 A2994 RMK A01 T02080131  RH  061%=      5-min Rain = 0
KCO1 150607Z 11008KT 21/13 A2994 RMK A01 T02080131  RH  062%=      5-min Rain = 0
KCO1 150608Z 11008KT 21/13 A2994 RMK A01 T02080132  RH  062%=      5-min Rain = 0
KCO1 150609Z 11007KT 21/13 A2994 RMK A01 T02070132  RH  062%=      5-min Rain = 0
KCO1 150610Z 11007KT 21/13 A2994 RMK A01 T02070132  RH  062%=      5-min Rain = 0
KCO1 150611Z 11008KT 21/13 A2994 RMK A01 T02060131  RH  062%=      5-min Rain = 0
KCO1 150612Z 11008KT 21/13 A2994 RMK A01 T02060132  RH  062%=      5-min Rain = 0
KCO1 150613Z 10008KT 21/13 A2994 RMK A01 T02060132  RH  063%=      5-min Rain = 0
KCO1 150614Z 10008KT 21/13 A2994 RMK A01 T02060133  RH  063%=      5-min Rain = 0
KCO1 150615Z 10008KT 21/13 A2994 RMK A01 T02060133  RH  063%=      5-min Rain = 0
KCO1 150616Z 10008KT 21/13 A2995 RMK A01 T02060133  RH  063%=      5-min Rain = 0
KCO1 150617Z 10008KT 21/13 A2995 RMK A01 T02060133  RH  063%=      5-min Rain = 0
KCO1 150618Z 10008KT 21/13 A2995 RMK A01 T02050133  RH  063%=      5-min Rain = 0
KCO1 150619Z 10008KT 21/13 A2995 RMK A01 T02050134  RH  064%=      5-min Rain = 0
KCO1 150620Z 11008KT 21/13 A2995 RMK A01 T02050134  RH  064%=      5-min Rain = 0
KCO1 150621Z 11007KT 21/14 A2995 RMK A01 T02050135  RH  064%=      5-min Rain = 0
KCO1 150622Z 11008KT 21/14 A2994 RMK A01 T02050136  RH  065%=      5-min Rain = 0
KCO1 150623Z 11008KT 21/14 A2994 RMK A01 T02050137  RH  065%=      5-min Rain = 0
KCO1 150624Z 11008KT 21/14 A2994 RMK A01 T02060138  RH  065%=      5-min Rain = 0
KCO1 150625Z 10008KT 21/14 A2994 RMK A01 T02060139  RH  065%=      5-min Rain = 0
KCO1 150626Z 10009KT 21/14 A2995 RMK A01 T02060140  RH  065%=      5-min Rain = 0
KCO1 150627Z 09008KT 21/14 A2995 RMK A01 T02060140  RH  066%=      5-min Rain = 0
KCO1 150628Z 10008KT 21/14 A2995 RMK A01 T02070141  RH  066%=      5-min Rain = 0
KCO1 150629Z 10008KT 21/14 A2995 RMK A01 T02070141  RH  066%=      5-min Rain = 0
KCO1 150630Z 10009KT 21/14 A2995 RMK A01 T02060141  RH  066%=      5-min Rain = 0
KCO1 150631Z 10009KT 21/14 A2995 RMK A01 T02070143  RH  067%=      5-min Rain = 0
KCO1 150632Z 11008KT 21/14 A2994 RMK A01 T02060144  RH  067%=      5-min Rain = 0
KCO1 150633Z 11008KT 21/15 A2994 RMK A01 T02070145  RH  068%=      5-min Rain = 0
KCO1 150634Z 11007KT 21/15 A2994 RMK A01 T02070145  RH  068%=      5-min Rain = 0
KCO1 150635Z 11009KT 21/15 A2994 RMK A01 T02070146  RH  068%=      5-min Rain = 0
KCO1 150636Z 11008KT 21/15 A2994 RMK A01 T02070147  RH  068%=      5-min Rain = 0
KCO1 150637Z 11008KT 21/15 A2994 RMK A01 T02070147  RH  068%=      5-min Rain = 0
KCO1 150638Z 11008KT 21/15 A2994 RMK A01 T02070148  RH  069%=      5-min Rain = 0
KCO1 150639Z 11009KT 21/15 A2994 RMK A01 T02070148  RH  069%=      5-min Rain = 0
KCO1 150640Z 10008KT 21/15 A2994 RMK A01 T02070149  RH  069%=      5-min Rain = 0
KCO1 150641Z 10008KT 21/15 A2995 RMK A01 T02070149  RH  069%=      5-min Rain = 0
KCO1 150642Z 10007KT 21/15 A2995 RMK A01 T02070149  RH  069%=      5-min Rain = 0
KCO1 150643Z 10008KT 21/15 A2995 RMK A01 T02070149  RH  069%=      5-min Rain = 0
KCO1 150644Z 10008KT 21/15 A2995 RMK A01 T02070149  RH  069%=      5-min Rain = 0
KCO1 150645Z 10007KT 21/15 A2995 RMK A01 T02080149  RH  069%=      5-min Rain = 0
KCO1 150646Z 11008KT 21/15 A2995 RMK A01 T02080150  RH  069%=      5-min Rain = 0
KCO1 150647Z 11007KT 21/15 A2995 RMK A01 T02080150  RH  070%=      5-min Rain = 0
KCO1 150648Z 11007KT 21/15 A2995 RMK A01 T02080150  RH  070%=      5-min Rain = 0
KCO1 150649Z 11007KT 21/15 A2994 RMK A01 T02070150  RH  070%=      5-min Rain = 0
KCO1 150650Z 11008KT 21/15 A2994 RMK A01 T02070150  RH  070%=      5-min Rain = 0
KCO1 150651Z 11008KT 21/15 A2994 RMK A01 T02060150  RH  070%=      5-min Rain = 0
KCO1 150652Z 11008KT 21/15 A2994 RMK A01 T02060150  RH  070%=      5-min Rain = 0
KCO1 150653Z 11009KT 21/15 A2995 RMK A01 T02060151  RH  070%=      5-min Rain = 0
KCO1 150654Z 11008KT 21/15 A2995 RMK A01 T02060151  RH  071%=      5-min Rain = 0
KCO1 150655Z 11009KT 21/15 A2995 RMK A01 T02060151  RH  070%=      5-min Rain = 0
KCO1 150656Z 11008KT 21/15 A2995 RMK A01 T02060151  RH  070%=      5-min Rain = 0
KCO1 150657Z 11009KT 21/15 A2995 RMK A01 T02060151  RH  071%=      5-min Rain = 0
KCO1 150658Z 11009KT 21/15 A2994 RMK A01 T02050151  RH  071%=      5-min Rain = 0
KCO1 150659Z 11009KT 21/15 A2994 RMK A01 T02050151  RH  071%=      5-min Rain = 0
KCO1 150700Z 11008KT 21/15 A2994 RMK A01 T02050151  RH  071%=      5-min Rain = 0
KCO1 150701Z 11009KT 21/15 A2994 RMK A01 T02050151  RH  071%=      5-min Rain = 0
KCO1 150702Z 11008KT 21/15 A2994 RMK A01 T02050152  RH  071%=      5-min Rain = 0
KCO1 150703Z 11009KT 21/15 A2994 RMK A01 T02050152  RH  071%=      5-min Rain = 0
KCO1 150704Z 11008KT 21/15 A2994 RMK A01 T02050152  RH  072%=      5-min Rain = 0
KCO1 150705Z 11009KT 20/15 A2994 RMK A01 T02040152  RH  072%=      5-min Rain = 0
KCO1 150706Z 11008KT 20/15 A2994 RMK A01 T02040152  RH  072%=      5-min Rain = 0
KCO1 150707Z 11008KT 20/15 A2994 RMK A01 T02040152  RH  072%=      5-min Rain = 0
KCO1 150708Z 11009KT 20/15 A2994 RMK A01 T02040152  RH  072%=      5-min Rain = 0
KCO1 150709Z 11009KT 20/15 A2994 RMK A01 T02040152  RH  072%=      5-min Rain = 0
KCO1 150710Z 11010KT 20/15 A2994 RMK A01 T02040152  RH  072%=      5-min Rain = 0
KCO1 150711Z 11008KT 20/15 A2994 RMK A01 T02040153  RH  072%=      5-min Rain = 0
KCO1 150712Z 11009KT 20/15 A2994 RMK A01 T02030152  RH  072%=      5-min Rain = 0
KCO1 150713Z 11009KT 20/15 A2994 RMK A01 T02030152  RH  073%=      5-min Rain = 0
KCO1 150714Z 11010KT 20/15 A2994 RMK A01 T02030152  RH  073%=      5-min Rain = 0
KCO1 150715Z 11010KT 20/15 A2994 RMK A01 T02030153  RH  073%=      5-min Rain = 0
KCO1 150716Z 11009KT 20/15 A2994 RMK A01 T02030153  RH  073%=      5-min Rain = 0
KCO1 150717Z 11010KT 20/15 A2994 RMK A01 T02030152  RH  073%=      5-min Rain = 0
KCO1 150718Z 11009KT 20/15 A2994 RMK A01 T02030153  RH  073%=      5-min Rain = 0
KCO1 150719Z 11009KT 20/15 A2994 RMK A01 T02030153  RH  073%=      5-min Rain = 0
KCO1 150720Z 11009KT 20/15 A2994 RMK A01 T02030153  RH  073%=      5-min Rain = 0
KCO1 150721Z 11008KT 20/15 A2994 RMK A01 T02030153  RH  073%=      5-min Rain = 0
KCO1 150722Z 11008KT 20/15 A2994 RMK A01 T02030153  RH  073%=      5-min Rain = 0
KCO1 150723Z 11008KT 20/15 A2994 RMK A01 T02020153  RH  073%=      5-min Rain = 0
KCO1 150724Z 12007KT 20/15 A2994 RMK A01 T02020153  RH  073%=      5-min Rain = 0
KCO1 150725Z 12008KT 20/15 A2994 RMK A01 T02020153  RH  073%=      5-min Rain = 0
KCO1 150726Z 12008KT 20/15 A2994 RMK A01 T02010152  RH  073%=      5-min Rain = 0
KCO1 150727Z 12008KT 20/15 A2994 RMK A01 T02010152  RH  073%=      5-min Rain = 0
KCO1 150728Z 12009KT 20/15 A2994 RMK A01 T02010151  RH  073%=      5-min Rain = 0
KCO1 150729Z 12009KT 20/15 A2994 RMK A01 T02010152  RH  073%=      5-min Rain = 0
KCO1 150730Z 12009KT 20/15 A2994 RMK A01 T02010151  RH  073%=      5-min Rain = 0
KCO1 150731Z 12010KT 20/15 A2994 RMK A01 T02010152  RH  073%=      5-min Rain = 0
KCO1 150732Z 12010KT 20/15 A2994 RMK A01 T02010152  RH  073%=      5-min Rain = 0
KCO1 150733Z 12009KT 20/15 A2994 RMK A01 T02010152  RH  073%=      5-min Rain = 0
KCO1 150734Z 12009KT 20/15 A2994 RMK A01 T02010152  RH  073%=      5-min Rain = 0
KCO1 150735Z 12009KT 20/15 A2994 RMK A01 T02000151  RH  073%=      5-min Rain = 0
KCO1 150736Z 11009KT 20/15 A2994 RMK A01 T02000151  RH  073%=      5-min Rain = 0
KCO1 150737Z 12009KT 20/15 A2994 RMK A01 T02000151  RH  073%=      5-min Rain = 0
KCO1 150738Z 12009KT 20/15 A2994 RMK A01 T02000151  RH  073%=      5-min Rain = 0
KCO1 150739Z 12009KT 20/15 A2994 RMK A01 T01990151  RH  074%=      5-min Rain = 0
KCO1 150740Z 12010KT 20/15 A2994 RMK A01 T01990151  RH  074%=      5-min Rain = 0
KCO1 150741Z 13009KT 20/15 A2994 RMK A01 T01990151  RH  074%=      5-min Rain = 0
KCO1 150742Z 13009KT 20/15 A2994 RMK A01 T01990151  RH  074%=      5-min Rain = 0
KCO1 150743Z 12009KT 20/15 A2994 RMK A01 T01990151  RH  074%=      5-min Rain = 0
KCO1 150744Z 13009KT 20/15 A2994 RMK A01 T01990151  RH  074%=      5-min Rain = 0
KCO1 150745Z 12008KT 20/15 A2994 RMK A01 T01990151  RH  074%=      5-min Rain = 0
KCO1 150746Z 13008KT 20/15 A2994 RMK A01 T02000151  RH  074%=      5-min Rain = 0
KCO1 150747Z 12008KT 20/15 A2994 RMK A01 T01990151  RH  074%=      5-min Rain = 0
KCO1 150748Z 12008KT 20/15 A2994 RMK A01 T01990151  RH  074%=      5-min Rain = 0
KCO1 150749Z 12007KT 20/15 A2994 RMK A01 T01990151  RH  074%=      5-min Rain = 0
KCO1 150750Z 12008KT 20/15 A2994 RMK A01 T01990151  RH  074%=      5-min Rain = 0
KCO1 150751Z 12007KT 20/15 A2994 RMK A01 T01980151  RH  074%=      5-min Rain = 0
KCO1 150752Z 12008KT 20/15 A2994 RMK A01 T01980151  RH  074%=      5-min Rain = 0
KCO1 150753Z 12008KT 20/15 A2994 RMK A01 T01980151  RH  074%=      5-min Rain = 0
KCO1 150754Z 12008KT 20/15 A2994 RMK A01 T01980151  RH  074%=      5-min Rain = 0
KCO1 150755Z 12007KT 20/15 A2994 RMK A01 T01980151  RH  074%=      5-min Rain = 0
KCO1 150756Z 12007KT 20/15 A2994 RMK A01 T01980151  RH  074%=      5-min Rain = 0
KCO1 150757Z 12008KT 20/15 A2994 RMK A01 T01980151  RH  074%=      5-min Rain = 0
KCO1 150758Z 11007KT 20/15 A2994 RMK A01 T01970151  RH  074%=      5-min Rain = 0
KCO1 150759Z 11008KT 20/15 A2994 RMK A01 T01970151  RH  075%=      5-min Rain = 0
KCO1 150800Z 11008KT 20/15 A2994 RMK A01 T01970151  RH  075%=      5-min Rain = 0
KCO1 150801Z 11008KT 20/15 A2994 RMK A01 T01960151  RH  075%=      5-min Rain = 0
KCO1 150802Z 11008KT 20/15 A2994 RMK A01 T01960152  RH  075%=      5-min Rain = 0
KCO1 150803Z 11009KT 20/15 A2994 RMK A01 T01960152  RH  075%=      5-min Rain = 0
KCO1 150804Z 11008KT 20/15 A2994 RMK A01 T01960152  RH  076%=      5-min Rain = 0
KCO1 150805Z 11008KT 20/15 A2994 RMK A01 T01960152  RH  075%=      5-min Rain = 0
KCO1 150806Z 11009KT 20/15 A2993 RMK A01 T01960152  RH  076%=      5-min Rain = 0
KCO1 150807Z 11007KT 20/15 A2993 RMK A01 T01960152  RH  076%=      5-min Rain = 0
KCO1 150808Z 11009KT 20/15 A2993 RMK A01 T01960152  RH  076%=      5-min Rain = 0
KCO1 150809Z 11007KT 20/15 A2993 RMK A01 T01960153  RH  076%=      5-min Rain = 0
KCO1 150810Z 11008KT 20/15 A2993 RMK A01 T01960153  RH  076%=      5-min Rain = 0
KCO1 150811Z 11008KT 20/15 A2993 RMK A01 T01960153  RH  076%=      5-min Rain = 0
KCO1 150812Z 11008KT 20/15 A2993 RMK A01 T01960154  RH  077%=      5-min Rain = 0
KCO1 150813Z 11009KT 20/15 A2993 RMK A01 T01960154  RH  077%=      5-min Rain = 0
KCO1 150814Z 11008KT 20/16 A2993 RMK A01 T01960155  RH  077%=      5-min Rain = 0
KCO1 150815Z 11009KT 20/16 A2993 RMK A01 T01960155  RH  077%=      5-min Rain = 0
KCO1 150816Z 11009KT 20/16 A2993 RMK A01 T01960155  RH  077%=      5-min Rain = 0
KCO1 150817Z 11008KT 20/16 A2993 RMK A01 T01960156  RH  078%=      5-min Rain = 0
KCO1 150818Z 11009KT 20/16 A2993 RMK A01 T01960156  RH  078%=      5-min Rain = 0
KCO1 150819Z 11008KT 20/16 A2993 RMK A01 T01960157  RH  078%=      5-min Rain = 0
KCO1 150820Z 11008KT 20/16 A2993 RMK A01 T01960157  RH  078%=      5-min Rain = 0
KCO1 150821Z 11009KT 20/16 A2993 RMK A01 T01960157  RH  078%=      5-min Rain = 0
KCO1 150822Z 11008KT 20/16 A2993 RMK A01 T01960158  RH  079%=      5-min Rain = 0
KCO1 150823Z 11009KT 20/16 A2993 RMK A01 T01960158  RH  078%=      5-min Rain = 0
KCO1 150824Z 11009KT 20/16 A2993 RMK A01 T01970158  RH  079%=      5-min Rain = 0
KCO1 150825Z 11010KT 20/16 A2993 RMK A01 T01970159  RH  079%=      5-min Rain = 0
KCO1 150826Z 11009KT 20/16 A2993 RMK A01 T01970159  RH  079%=      5-min Rain = 0
KCO1 150827Z 11009KT 20/16 A2993 RMK A01 T01970159  RH  079%=      5-min Rain = 0
KCO1 150828Z 11009KT 20/16 A2993 RMK A01 T01970160  RH  079%=      5-min Rain = 0
KCO1 150829Z 11009KT 20/16 A2993 RMK A01 T01980161  RH  079%=      5-min Rain = 0
KCO1 150830Z 11009KT 20/16 A2993 RMK A01 T01980161  RH  079%=      5-min Rain = 0
KCO1 150831Z 11010KT 20/16 A2993 RMK A01 T01980161  RH  079%=      5-min Rain = 0
KCO1 150832Z 11011KT 20/16 A2993 RMK A01 T01990162  RH  079%=      5-min Rain = 0
KCO1 150833Z 11009KT 20/16 A2993 RMK A01 T01990162  RH  079%=      5-min Rain = 0
KCO1 150834Z 11009KT 20/16 A2993 RMK A01 T01990162  RH  079%=      5-min Rain = 0
KCO1 150835Z 11009KT 20/16 A2993 RMK A01 T01990163  RH  079%=      5-min Rain = 0
KCO1 150836Z 11009KT 20/16 A2993 RMK A01 T01990163  RH  080%=      5-min Rain = 0
KCO1 150837Z 11009KT 20/16 A2993 RMK A01 T01990163  RH  080%=      5-min Rain = 0
KCO1 150838Z 11008KT 20/16 A2993 RMK A01 T01990163  RH  080%=      5-min Rain = 0
KCO1 150839Z 11009KT 20/16 A2993 RMK A01 T01990163  RH  080%=      5-min Rain = 0
KCO1 150840Z 11009KT 20/16 A2993 RMK A01 T01980163  RH  080%=      5-min Rain = 0
KCO1 150841Z 11009KT 20/16 A2993 RMK A01 T01980163  RH  080%=      5-min Rain = 0
KCO1 150842Z 12009KT 20/16 A2993 RMK A01 T01980164  RH  080%=      5-min Rain = 0
KCO1 150843Z 11008KT 20/16 A2993 RMK A01 T01980164  RH  080%=      5-min Rain = 0
KCO1 150844Z 11008KT 20/16 A2993 RMK A01 T01980164  RH  080%=      5-min Rain = 0
KCO1 150845Z 12010KT 20/16 A2993 RMK A01 T01980164  RH  081%=      5-min Rain = 0
KCO1 150846Z 11009KT 20/17 A2993 RMK A01 T01980165  RH  081%=      5-min Rain = 0
KCO1 150847Z 11010KT 20/16 A2993 RMK A01 T01980164  RH  081%=      5-min Rain = 0
KCO1 150848Z 11009KT 20/17 A2993 RMK A01 T01990165  RH  081%=      5-min Rain = 0
KCO1 150849Z 11008KT 20/17 A2993 RMK A01 T01980165  RH  081%=      5-min Rain = 0
KCO1 150850Z 11008KT 20/17 A2993 RMK A01 T01990165  RH  081%=      5-min Rain = 0
KCO1 150851Z 11009KT 20/17 A2993 RMK A01 T01990165  RH  081%=      5-min Rain = 0
KCO1 150852Z 11008KT 20/17 A2993 RMK A01 T01980165  RH  081%=      5-min Rain = 0
KCO1 150853Z 11008KT 20/17 A2993 RMK A01 T01980166  RH  081%=      5-min Rain = 0
KCO1 150854Z 11008KT 20/17 A2993 RMK A01 T01980166  RH  081%=      5-min Rain = 0
KCO1 150855Z 11009KT 20/17 A2993 RMK A01 T01980166  RH  082%=      5-min Rain = 0
KCO1 150856Z 11008KT 20/17 A2993 RMK A01 T01980167  RH  082%=      5-min Rain = 0
KCO1 150857Z 12008KT 20/17 A2993 RMK A01 T01990167  RH  082%=      5-min Rain = 0
KCO1 150858Z 11008KT 20/17 A2993 RMK A01 T01990167  RH  082%=      5-min Rain = 0
KCO1 150859Z 11008KT 20/17 A2993 RMK A01 T01990167  RH  082%=      5-min Rain = 0
KCO1 150900Z 11008KT 20/17 A2993 RMK A01 T01990167  RH  082%=      5-min Rain = 0
KCO1 150901Z 11008KT 20/17 A2993 RMK A01 T01990168  RH  082%=      5-min Rain = 0
KCO1 150902Z 11008KT 20/17 A2993 RMK A01 T01990168  RH  082%=      5-min Rain = 0
KCO1 150903Z 11007KT 20/17 A2993 RMK A01 T02000169  RH  082%=      5-min Rain = 0
KCO1 150904Z 11009KT 20/17 A2993 RMK A01 T02000168  RH  082%=      5-min Rain = 0
KCO1 150905Z 11008KT 20/17 A2993 RMK A01 T02000169  RH  082%=      5-min Rain = 0
KCO1 150906Z 11008KT 20/17 A2993 RMK A01 T02000169  RH  082%=      5-min Rain = 0
KCO1 150907Z 11007KT 20/17 A2993 RMK A01 T02000169  RH  082%=      5-min Rain = 0
KCO1 150908Z 11008KT 20/17 A2993 RMK A01 T02000169  RH  082%=      5-min Rain = 0
KCO1 150909Z 11008KT 20/17 A2993 RMK A01 T02000169  RH  083%=      5-min Rain = 0
KCO1 150910Z 11007KT 20/17 A2993 RMK A01 T02000169  RH  082%=      5-min Rain = 0
KCO1 150911Z 11009KT 20/17 A2993 RMK A01 T02000169  RH  083%=      5-min Rain = 0
KCO1 150912Z 11008KT 20/17 A2993 RMK A01 T02000170  RH  083%=      5-min Rain = 0
KCO1 150913Z 11008KT 20/17 A2993 RMK A01 T02000169  RH  083%=      5-min Rain = 0
KCO1 150914Z 11007KT 20/17 A2993 RMK A01 T02000169  RH  083%=      5-min Rain = 0
KCO1 150915Z 11008KT 20/17 A2993 RMK A01 T01990169  RH  083%=      5-min Rain = 0
KCO1 150916Z 11008KT 20/17 A2993 RMK A01 T01990169  RH  083%=      5-min Rain = 0
KCO1 150917Z 11008KT 20/17 A2993 RMK A01 T01990169  RH  083%=      5-min Rain = 0
KCO1 150918Z 11008KT 20/17 A2993 RMK A01 T01990169  RH  083%=      5-min Rain = 0
KCO1 150919Z 11008KT 20/17 A2993 RMK A01 T01990169  RH  083%=      5-min Rain = 0
KCO1 150920Z 11008KT 20/17 A2993 RMK A01 T01980169  RH  083%=      5-min Rain = 0
KCO1 150921Z 12007KT 20/17 A2993 RMK A01 T01980169  RH  083%=      5-min Rain = 0
KCO1 150922Z 11008KT 20/17 A2993 RMK A01 T01980169  RH  083%=      5-min Rain = 0
KCO1 150923Z 11008KT 20/17 A2993 RMK A01 T01980169  RH  083%=      5-min Rain = 0
KCO1 150924Z 11007KT 20/17 A2993 RMK A01 T01980169  RH  083%=      5-min Rain = 0
KCO1 150925Z 11008KT 20/17 A2993 RMK A01 T01970169  RH  083%=      5-min Rain = 0
KCO1 150926Z 11008KT 20/17 A2993 RMK A01 T01980169  RH  084%=      5-min Rain = 0
KCO1 150927Z 11007KT 20/17 A2993 RMK A01 T01970169  RH  084%=      5-min Rain = 0
KCO1 150928Z 11007KT 20/17 A2992 RMK A01 T01980169  RH  084%=      5-min Rain = 0
KCO1 150929Z 11007KT 20/17 A2992 RMK A01 T01980169  RH  084%=      5-min Rain = 0
KCO1 150930Z 11008KT 20/17 A2993 RMK A01 T01970170  RH  084%=      5-min Rain = 0
KCO1 150931Z 11007KT 20/17 A2992 RMK A01 T01980170  RH  084%=      5-min Rain = 0
KCO1 150932Z 11008KT 20/17 A2993 RMK A01 T01970170  RH  084%=      5-min Rain = 0
KCO1 150933Z 11009KT 20/17 A2992 RMK A01 T01970169  RH  084%=      5-min Rain = 0
KCO1 150934Z 11009KT 20/17 A2993 RMK A01 T01970170  RH  084%=      5-min Rain = 0
KCO1 150935Z 11009KT 20/17 A2992 RMK A01 T01970170  RH  084%=      5-min Rain = 0
KCO1 150936Z 11009KT 20/17 A2992 RMK A01 T01970170  RH  084%=      5-min Rain = 0
KCO1 150937Z 11008KT 20/17 A2992 RMK A01 T01980170  RH  084%=      5-min Rain = 0
KCO1 150938Z 11009KT 20/17 A2992 RMK A01 T01980170  RH  084%=      5-min Rain = 0
KCO1 150939Z 11008KT 20/17 A2992 RMK A01 T01980170  RH  084%=      5-min Rain = 0
KCO1 150940Z 11008KT 20/17 A2993 RMK A01 T01980170  RH  084%=      5-min Rain = 0
KCO1 150941Z 11008KT 20/17 A2993 RMK A01 T01980170  RH  084%=      5-min Rain = 0
KCO1 150942Z 11007KT 20/17 A2993 RMK A01 T01970170  RH  084%=      5-min Rain = 0
KCO1 150943Z 11009KT 20/17 A2993 RMK A01 T01970170  RH  084%=      5-min Rain = 0
KCO1 150944Z 11007KT 20/17 A2992 RMK A01 T01970170  RH  084%=      5-min Rain = 0
KCO1 150945Z 11008KT 20/17 A2992 RMK A01 T01970169  RH  084%=      5-min Rain = 0
KCO1 150946Z 12009KT 20/17 A2992 RMK A01 T01970169  RH  084%=      5-min Rain = 0
KCO1 150947Z 12009KT 20/17 A2992 RMK A01 T01980170  RH  084%=      5-min Rain = 0
KCO1 150948Z 12009KT 20/17 A2992 RMK A01 T01980170  RH  084%=      5-min Rain = 0
KCO1 150949Z 12009KT 20/17 A2992 RMK A01 T01980170  RH  084%=      5-min Rain = 0
KCO1 150950Z 12008KT 20/17 A2992 RMK A01 T01990170  RH  083%=      5-min Rain = 0
KCO1 150951Z 13009KT 20/17 A2992 RMK A01 T01990169  RH  083%=      5-min Rain = 0
KCO1 150952Z 13010KT 20/17 A2992 RMK A01 T01990169  RH  083%=      5-min Rain = 0
KCO1 150953Z 13010KT 20/17 A2992 RMK A01 T02000169  RH  082%=      5-min Rain = 0
KCO1 150954Z 13011KT 20/17 A2992 RMK A01 T02000169  RH  082%=      5-min Rain = 0
KCO1 150955Z 13011KT 20/17 A2992 RMK A01 T02010168  RH  082%=      5-min Rain = 0
KCO1 150956Z 13010KT 20/17 A2992 RMK A01 T02010168  RH  081%=      5-min Rain = 0
KCO1 150957Z 13011KT 20/17 A2992 RMK A01 T02010167  RH  081%=      5-min Rain = 0
KCO1 150958Z 13012KT 20/17 A2992 RMK A01 T02020167  RH  080%=      5-min Rain = 0
KCO1 150959Z 13012KT 20/17 A2992 RMK A01 T02020167  RH  080%=      5-min Rain = 0
KCO1 151000Z 13011KT 20/17 A2992 RMK A01 T02030167  RH  080%=      5-min Rain = 0
KCO1 151001Z 13011KT 20/17 A2992 RMK A01 T02030166  RH  079%=      5-min Rain = 0
KCO1 151002Z 13011KT 20/17 A2992 RMK A01 T02030167  RH  080%=      5-min Rain = 0
KCO1 151003Z 13011KT 20/17 A2992 RMK A01 T02030167  RH  080%=      5-min Rain = 0
KCO1 151004Z 13010KT 20/17 A2992 RMK A01 T02030166  RH  080%=      5-min Rain = 0
KCO1 151005Z 13012KT 20/17 A2992 RMK A01 T02030167  RH  080%=      5-min Rain = 0
KCO1 151006Z 13011KT 20/17 A2992 RMK A01 T02030167  RH  080%=      5-min Rain = 0
KCO1 151007Z 13012KT 20/17 A2992 RMK A01 T02030167  RH  080%=      5-min Rain = 0
KCO1 151008Z 13011KT 20/17 A2992 RMK A01 T02030167  RH  080%=      5-min Rain = 0
KCO1 151009Z 13010KT 20/17 A2992 RMK A01 T02030166  RH  080%=      5-min Rain = 0
KCO1 151010Z 13011KT 20/17 A2992 RMK A01 T02030167  RH  080%=      5-min Rain = 0
KCO1 151011Z 13012KT 20/17 A2992 RMK A01 T02030167  RH  080%=      5-min Rain = 0
KCO1 151012Z 13012KT 20/17 A2992 RMK A01 T02030167  RH  080%=      5-min Rain = 0
KCO1 151013Z 13011KT 20/17 A2992 RMK A01 T02030166  RH  079%=      5-min Rain = 0
KCO1 151014Z 13010KT 20/17 A2992 RMK A01 T02030166  RH  079%=      5-min Rain = 0
KCO1 151015Z 13010KT 20/17 A2992 RMK A01 T02040166  RH  079%=      5-min Rain = 0
KCO1 151016Z 13011KT 20/17 A2992 RMK A01 T02030166  RH  079%=      5-min Rain = 0
KCO1 151017Z 13012KT 20/17 A2992 RMK A01 T02040166  RH  079%=      5-min Rain = 0
KCO1 151018Z 13010KT 20/17 A2992 RMK A01 T02040166  RH  079%=      5-min Rain = 0
KCO1 151019Z 13009KT 20/17 A2992 RMK A01 T02040166  RH  079%=      5-min Rain = 0
KCO1 151020Z 13010KT 20/17 A2992 RMK A01 T02040166  RH  079%=      5-min Rain = 0
KCO1 151021Z 13010KT 20/17 A2992 RMK A01 T02040166  RH  079%=      5-min Rain = 0
KCO1 151022Z 13012KT 20/17 A2992 RMK A01 T02040166  RH  079%=      5-min Rain = 0
KCO1 151023Z 13011KT 20/17 A2992 RMK A01 T02040166  RH  079%=      5-min Rain = 0
KCO1 151024Z 13011KT 20/17 A2992 RMK A01 T02040166  RH  079%=      5-min Rain = 0
KCO1 151025Z 13011KT 20/17 A2992 RMK A01 T02040166  RH  079%=      5-min Rain = 0
KCO1 151026Z 13011KT 20/17 A2992 RMK A01 T02040166  RH  079%=      5-min Rain = 0
KCO1 151027Z 13011KT 20/17 A2992 RMK A01 T02040166  RH  079%=      5-min Rain = 0
KCO1 151028Z 13011KT 20/17 A2992 RMK A01 T02040166  RH  079%=      5-min Rain = 0
KCO1 151029Z 13010KT 20/17 A2992 RMK A01 T02040166  RH  079%=      5-min Rain = 0
KCO1 151030Z 13010KT 20/17 A2992 RMK A01 T02040166  RH  079%=      5-min Rain = 0
KCO1 151031Z 13010KT 20/17 A2992 RMK A01 T02040166  RH  079%=      5-min Rain = 0
KCO1 151032Z 13010KT 20/17 A2992 RMK A01 T02030165  RH  079%=      5-min Rain = 0
KCO1 151033Z 13011KT 20/17 A2992 RMK A01 T02030166  RH  079%=      5-min Rain = 0
KCO1 151034Z 13010KT 20/17 A2992 RMK A01 T02030166  RH  079%=      5-min Rain = 0
KCO1 151035Z 13012KT 20/17 A2992 RMK A01 T02030165  RH  079%=      5-min Rain = 0
KCO1 151036Z 13010KT 20/17 A2992 RMK A01 T02030166  RH  079%=      5-min Rain = 0
KCO1 151037Z 13011KT 20/17 A2992 RMK A01 T02030165  RH  079%=      5-min Rain = 0
KCO1 151038Z 13011KT 20/17 A2992 RMK A01 T02030166  RH  079%=      5-min Rain = 0
KCO1 151039Z 13011KT 20/17 A2992 RMK A01 T02040166  RH  079%=      5-min Rain = 0
KCO1 151040Z 13011KT 20/17 A2992 RMK A01 T02030166  RH  079%=      5-min Rain = 0
KCO1 151041Z 13011KT 20/17 A2992 RMK A01 T02030166  RH  079%=      5-min Rain = 0
KCO1 151042Z 13010KT 20/17 A2992 RMK A01 T02030166  RH  079%=      5-min Rain = 0
KCO1 151043Z 12011KT 20/17 A2992 RMK A01 T02030165  RH  079%=      5-min Rain = 0
KCO1 151044Z 12010KT 20/17 A2992 RMK A01 T02030166  RH  079%=      5-min Rain = 0
KCO1 151045Z 12010KT 20/17 A2992 RMK A01 T02020166  RH  079%=      5-min Rain = 0
KCO1 151046Z 12010KT 20/17 A2992 RMK A01 T02020165  RH  080%=      5-min Rain = 0
KCO1 151047Z 12010KT 20/17 A2992 RMK A01 T02010166  RH  080%=      5-min Rain = 0
KCO1 151048Z 11011KT 20/17 A2992 RMK A01 T02010166  RH  080%=      5-min Rain = 0
KCO1 151049Z 12010KT 20/17 A2992 RMK A01 T02010166  RH  080%=      5-min Rain = 0
KCO1 151050Z 11010KT 20/17 A2992 RMK A01 T02010167  RH  081%=      5-min Rain = 0
KCO1 151051Z 12010KT 20/17 A2992 RMK A01 T02000167  RH  081%=      5-min Rain = 0
KCO1 151052Z 12009KT 20/17 A2992 RMK A01 T02000167  RH  081%=      5-min Rain = 0
KCO1 151053Z 12010KT 20/17 A2992 RMK A01 T02000168  RH  082%=      5-min Rain = 0
KCO1 151054Z 12011KT 20/17 A2992 RMK A01 T02000168  RH  082%=      5-min Rain = 0
KCO1 151055Z 12011KT 20/17 A2992 RMK A01 T02000168  RH  082%=      5-min Rain = 0
KCO1 151056Z 12009KT 20/17 A2992 RMK A01 T02000168  RH  082%=      5-min Rain = 0
KCO1 151057Z 12011KT 20/17 A2992 RMK A01 T01990168  RH  082%=      5-min Rain = 0
KCO1 151058Z 12011KT 20/17 A2992 RMK A01 T01990168  RH  082%=      5-min Rain = 0
KCO1 151059Z 12011KT 20/17 A2992 RMK A01 T01990169  RH  082%=      5-min Rain = 0
KCO1 151100Z 12010KT 20/17 A2992 RMK A01 T01990169  RH  082%=      5-min Rain = 0
KCO1 151101Z 12011KT 20/17 A2992 RMK A01 T01990169  RH  082%=      5-min Rain = 0
KCO1 151102Z 12012KT 20/17 A2992 RMK A01 T01990169  RH  082%=      5-min Rain = 0
KCO1 151103Z 13012KT 20/17 A2992 RMK A01 T01990169  RH  083%=      5-min Rain = 0
KCO1 151104Z 13011KT 20/17 A2992 RMK A01 T01990169  RH  083%=      5-min Rain = 0
KCO1 151105Z 13012KT 20/17 A2992 RMK A01 T01990168  RH  083%=      5-min Rain = 0
KCO1 151106Z 13013KT 20/17 A2992 RMK A01 T01990169  RH  083%=      5-min Rain = 0
KCO1 151107Z 13012KT 20/17 A2992 RMK A01 T01990169  RH  083%=      5-min Rain = 0
KCO1 151108Z 13010KT 20/17 A2992 RMK A01 T01990168  RH  082%=      5-min Rain = 0
KCO1 151109Z 13012KT 20/17 A2991 RMK A01 T01990168  RH  083%=      5-min Rain = 0
KCO1 151110Z 12011KT 20/17 A2991 RMK A01 T01990168  RH  083%=      5-min Rain = 0
KCO1 151111Z 13011KT 20/17 A2991 RMK A01 T01990169  RH  083%=      5-min Rain = 0
KCO1 151112Z 13011KT 20/17 A2991 RMK A01 T01990169  RH  083%=      5-min Rain = 0
KCO1 151113Z 13011KT 20/17 A2991 RMK A01 T01990169  RH  083%=      5-min Rain = 0
KCO1 151114Z 13011KT 20/17 A2991 RMK A01 T01980168  RH  083%=      5-min Rain = 0
KCO1 151115Z 13011KT 20/17 A2991 RMK A01 T01980169  RH  083%=      5-min Rain = 0
KCO1 151116Z 13011KT 20/17 A2991 RMK A01 T01980168  RH  083%=      5-min Rain = 0
KCO1 151117Z 13010KT 20/17 A2991 RMK A01 T01980168  RH  083%=      5-min Rain = 0
KCO1 151118Z 13011KT 20/17 A2991 RMK A01 T01980168  RH  083%=      5-min Rain = 0
KCO1 151119Z 13010KT 20/17 A2991 RMK A01 T01980168  RH  083%=      5-min Rain = 0
KCO1 151120Z 13009KT 20/17 A2991 RMK A01 T01980168  RH  083%=      5-min Rain = 0
KCO1 151121Z 13010KT 20/17 A2991 RMK A01 T01970168  RH  083%=      5-min Rain = 0
KCO1 151122Z 13010KT 20/17 A2991 RMK A01 T01970168  RH  083%=      5-min Rain = 0
KCO1 151123Z 13009KT 20/17 A2992 RMK A01 T01970168  RH  083%=      5-min Rain = 0
KCO1 151124Z 13009KT 20/17 A2992 RMK A01 T01970168  RH  083%=      5-min Rain = 0
KCO1 151125Z 13009KT 20/17 A2992 RMK A01 T01960167  RH  083%=      5-min Rain = 0
KCO1 151126Z 13008KT 20/17 A2992 RMK A01 T01960167  RH  084%=      5-min Rain = 0
KCO1 151127Z 12008KT 20/17 A2992 RMK A01 T01960167  RH  084%=      5-min Rain = 0
KCO1 151128Z 13008KT 20/17 A2992 RMK A01 T01960168  RH  084%=      5-min Rain = 0
KCO1 151129Z 13009KT 20/17 A2992 RMK A01 T01960168  RH  084%=      5-min Rain = 0
KCO1 151130Z 12009KT 20/17 A2992 RMK A01 T01960168  RH  084%=      5-min Rain = 0
KCO1 151131Z 13008KT 20/17 A2992 RMK A01 T01950168  RH  084%=      5-min Rain = 0
KCO1 151132Z 13007KT 20/17 A2992 RMK A01 T01950167  RH  084%=      5-min Rain = 0
KCO1 151133Z 13008KT 20/17 A2992 RMK A01 T01950167  RH  084%=      5-min Rain = 0
KCO1 151134Z 13008KT 20/17 A2992 RMK A01 T01950168  RH  084%=      5-min Rain = 0
KCO1 151135Z 13008KT 20/17 A2992 RMK A01 T01950168  RH  084%=      5-min Rain = 0
KCO1 151136Z 13008KT 19/17 A2992 RMK A01 T01940167  RH  084%=      5-min Rain = 0
KCO1 151137Z 13007KT 19/17 A2992 RMK A01 T01940167  RH  084%=      5-min Rain = 0
KCO1 151138Z 13008KT 19/17 A2992 RMK A01 T01930167  RH  085%=      5-min Rain = 0
KCO1 151139Z 14008KT 19/17 A2992 RMK A01 T01930167  RH  085%=      5-min Rain = 0
KCO1 151140Z 14008KT 19/17 A2992 RMK A01 T01930167  RH  085%=      5-min Rain = 0
KCO1 151141Z 14009KT 19/17 A2992 RMK A01 T01920167  RH  085%=      5-min Rain = 0
KCO1 151142Z 14009KT 19/17 A2992 RMK A01 T01920167  RH  085%=      5-min Rain = 0
KCO1 151143Z 14008KT 19/17 A2992 RMK A01 T01930167  RH  085%=      5-min Rain = 0
KCO1 151144Z 14007KT 19/17 A2992 RMK A01 T01930167  RH  085%=      5-min Rain = 0
KCO1 151145Z 14008KT 19/17 A2992 RMK A01 T01920166  RH  085%=      5-min Rain = 0
KCO1 151146Z 14008KT 19/17 A2992 RMK A01 T01920167  RH  085%=      5-min Rain = 0
KCO1 151147Z 13008KT 19/17 A2992 RMK A01 T01910166  RH  085%=      5-min Rain = 0
KCO1 151148Z 13008KT 19/17 A2992 RMK A01 T01910166  RH  085%=      5-min Rain = 0
KCO1 151149Z 13008KT 19/17 A2992 RMK A01 T01910166  RH  085%=      5-min Rain = 0
KCO1 151150Z 13007KT 19/17 A2992 RMK A01 T01910166  RH  085%=      5-min Rain = 0
KCO1 151151Z 13009KT 19/17 A2993 RMK A01 T01910166  RH  085%=      5-min Rain = 0
KCO1 151152Z 13008KT 19/17 A2993 RMK A01 T01910166  RH  085%=      5-min Rain = 0
KCO1 151153Z 13009KT 19/17 A2993 RMK A01 T01910166  RH  085%=      5-min Rain = 0
KCO1 151154Z 13008KT 19/17 A2993 RMK A01 T01910166  RH  085%=      5-min Rain = 0
KCO1 151155Z 13008KT 19/17 A2993 RMK A01 T01910165  RH  085%=      5-min Rain = 0
KCO1 151156Z 13008KT 19/17 A2993 RMK A01 T01910165  RH  085%=      5-min Rain = 0
KCO1 151157Z 13007KT 19/17 A2993 RMK A01 T01910165  RH  085%=      5-min Rain = 0
KCO1 151158Z 14007KT 19/17 A2993 RMK A01 T01910165  RH  085%=      5-min Rain = 0
KCO1 151159Z 13007KT 19/17 A2993 RMK A01 T01900165  RH  085%=      5-min Rain = 0
KCO1 151200Z 14007KT 19/17 A2993 RMK A01 T01900165  RH  085%=      5-min Rain = 0
KCO1 151201Z 14008KT 19/17 A2993 RMK A01 T01900165  RH  085%=      5-min Rain = 0
KCO1 151202Z 14007KT 19/17 A2993 RMK A01 T01900165  RH  085%=      5-min Rain = 0
KCO1 151203Z 13008KT 19/17 A2993 RMK A01 T01900165  RH  085%=      5-min Rain = 0
KCO1 151204Z 13009KT 19/17 A2993 RMK A01 T01900165  RH  085%=      5-min Rain = 0
KCO1 151205Z 13009KT 19/17 A2993 RMK A01 T01900165  RH  085%=      5-min Rain = 0
KCO1 151206Z 13008KT 19/16 A2993 RMK A01 T01900164  RH  085%=      5-min Rain = 0
KCO1 151207Z 13008KT 19/16 A2993 RMK A01 T01900164  RH  085%=      5-min Rain = 0
KCO1 151208Z 14008KT 19/16 A2993 RMK A01 T01900164  RH  085%=      5-min Rain = 0
KCO1 151209Z 13009KT 19/16 A2993 RMK A01 T01900164  RH  085%=      5-min Rain = 0
KCO1 151210Z 14008KT 19/16 A2993 RMK A01 T01900164  RH  085%=      5-min Rain = 0
KCO1 151211Z 13007KT 19/16 A2993 RMK A01 T01900164  RH  085%=      5-min Rain = 0
KCO1 151212Z 13008KT 19/16 A2993 RMK A01 T01900164  RH  085%=      5-min Rain = 0
KCO1 151213Z 14008KT 19/16 A2993 RMK A01 T01900164  RH  085%=      5-min Rain = 0
KCO1 151214Z 14007KT 19/16 A2993 RMK A01 T01900164  RH  085%=      5-min Rain = 0
KCO1 151215Z 14007KT 19/16 A2993 RMK A01 T01900164  RH  085%=      5-min Rain = 0
KCO1 151216Z 14006KT 19/16 A2993 RMK A01 T01890164  RH  085%=      5-min Rain = 0
KCO1 151217Z 14007KT 19/16 A2993 RMK A01 T01890163  RH  085%=      5-min Rain = 0
KCO1 151218Z 13008KT 19/16 A2993 RMK A01 T01890163  RH  085%=      5-min Rain = 0
KCO1 151219Z 14007KT 19/16 A2993 RMK A01 T01890163  RH  085%=      5-min Rain = 0
KCO1 151220Z 14006KT 19/16 A2993 RMK A01 T01900164  RH  085%=      5-min Rain = 0
KCO1 151221Z 14007KT 19/16 A2993 RMK A01 T01890163  RH  085%=      5-min Rain = 0
KCO1 151222Z 14007KT 19/16 A2993 RMK A01 T01890163  RH  085%=      5-min Rain = 0
KCO1 151223Z 13006KT 19/16 A2994 RMK A01 T01890163  RH  084%=      5-min Rain = 0
KCO1 151224Z 13006KT 19/16 A2994 RMK A01 T01890162  RH  084%=      5-min Rain = 0
KCO1 151225Z 13007KT 19/16 A2994 RMK A01 T01900163  RH  084%=      5-min Rain = 0
KCO1 151226Z 13007KT 19/16 A2994 RMK A01 T01900163  RH  084%=      5-min Rain = 0
KCO1 151227Z 14006KT 19/16 A2994 RMK A01 T01900162  RH  084%=      5-min Rain = 0
KCO1 151228Z 14006KT 19/16 A2994 RMK A01 T01900162  RH  084%=      5-min Rain = 0
KCO1 151229Z 14005KT 19/16 A2994 RMK A01 T01910162  RH  084%=      5-min Rain = 0
KCO1 151230Z 14005KT 19/16 A2994 RMK A01 T01910162  RH  083%=      5-min Rain = 0
KCO1 151231Z 14005KT 19/16 A2994 RMK A01 T01920162  RH  083%=      5-min Rain = 0
KCO1 151232Z 14005KT 19/16 A2994 RMK A01 T01920162  RH  083%=      5-min Rain = 0
KCO1 151233Z 14005KT 19/16 A2994 RMK A01 T01920162  RH  083%=      5-min Rain = 0
KCO1 151234Z 14005KT 19/16 A2994 RMK A01 T01920162  RH  083%=      5-min Rain = 0
KCO1 151235Z 14005KT 19/16 A2994 RMK A01 T01930162  RH  082%=      5-min Rain = 0
KCO1 151236Z 14005KT 19/16 A2994 RMK A01 T01930162  RH  082%=      5-min Rain = 0
KCO1 151237Z 14005KT 19/16 A2994 RMK A01 T01940162  RH  082%=      5-min Rain = 0
KCO1 151238Z 14005KT 19/16 A2994 RMK A01 T01940162  RH  081%=      5-min Rain = 0
KCO1 151239Z 13005KT 19/16 A2994 RMK A01 T01940161  RH  081%=      5-min Rain = 0
KCO1 151240Z 14005KT 20/16 A2994 RMK A01 T01950161  RH  081%=      5-min Rain = 0
KCO1 151241Z 13004KT 20/16 A2994 RMK A01 T01950161  RH  081%=      5-min Rain = 0
KCO1 151242Z 14004KT 20/16 A2995 RMK A01 T01960161  RH  081%=      5-min Rain = 0
KCO1 151243Z 14004KT 20/16 A2995 RMK A01 T01960161  RH  080%=      5-min Rain = 0
KCO1 151244Z 13004KT 20/16 A2995 RMK A01 T01970162  RH  080%=      5-min Rain = 0
KCO1 151245Z 14004KT 20/16 A2995 RMK A01 T01970162  RH  080%=      5-min Rain = 0
KCO1 151246Z 14005KT 20/16 A2995 RMK A01 T01980161  RH  079%=      5-min Rain = 0
KCO1 151247Z 14004KT 20/16 A2995 RMK A01 T01980161  RH  079%=      5-min Rain = 0
KCO1 151248Z 14005KT 20/16 A2995 RMK A01 T01990161  RH  079%=      5-min Rain = 0
KCO1 151249Z 14005KT 20/16 A2995 RMK A01 T01990161  RH  078%=      5-min Rain = 0
KCO1 151250Z 14005KT 20/16 A2995 RMK A01 T01990160  RH  078%=      5-min Rain = 0
KCO1 151251Z 14005KT 20/16 A2995 RMK A01 T02000160  RH  078%=      5-min Rain = 0
KCO1 151252Z 15005KT 20/16 A2995 RMK A01 T02000160  RH  078%=      5-min Rain = 0
KCO1 151253Z 15006KT 20/16 A2995 RMK A01 T02000160  RH  077%=      5-min Rain = 0
KCO1 151254Z 15006KT 20/16 A2995 RMK A01 T02010159  RH  077%=      5-min Rain = 0
KCO1 151255Z 15005KT 20/16 A2995 RMK A01 T02010159  RH  077%=      5-min Rain = 0
KCO1 151256Z 15005KT 20/16 A2995 RMK A01 T02010159  RH  077%=      5-min Rain = 0
KCO1 151257Z 16006KT 20/16 A2995 RMK A01 T02020158  RH  076%=      5-min Rain = 0
KCO1 151258Z 16006KT 20/16 A2995 RMK A01 T02020158  RH  076%=      5-min Rain = 0
KCO1 151259Z 16006KT 20/16 A2995 RMK A01 T02020157  RH  075%=      5-min Rain = 0
KCO1 151300Z 16006KT 20/16 A2995 RMK A01 T02020156  RH  075%=      5-min Rain = 0
KCO1 151301Z 17007KT 20/16 A2995 RMK A01 T02020155  RH  074%=      5-min Rain = 0
KCO1 151302Z 16006KT 20/15 A2995 RMK A01 T02020154  RH  074%=      5-min Rain = 0
KCO1 151303Z 17006KT 20/15 A2995 RMK A01 T02030154  RH  073%=      5-min Rain = 0
KCO1 151304Z 17005KT 20/15 A2995 RMK A01 T02020154  RH  074%=      5-min Rain = 0
KCO1 151305Z 17005KT 20/15 A2995 RMK A01 T02030153  RH  073%=      5-min Rain = 0
KCO1 151306Z 17005KT 20/15 A2995 RMK A01 T02040152  RH  072%=      5-min Rain = 0
KCO1 151307Z 17005KT 20/15 A2995 RMK A01 T02040151  RH  071%=      5-min Rain = 0
KCO1 151308Z 17006KT 21/15 A2995 RMK A01 T02050150  RH  070%=      5-min Rain = 0
KCO1 151309Z 17006KT 21/15 A2995 RMK A01 T02060147  RH  069%=      5-min Rain = 0
KCO1 151310Z 17006KT 21/15 A2996 RMK A01 T02070147  RH  069%=      5-min Rain = 0
KCO1 151311Z 17006KT 21/15 A2996 RMK A01 T02070145  RH  068%=      5-min Rain = 0
KCO1 151312Z 17007KT 21/14 A2996 RMK A01 T02080143  RH  066%=      5-min Rain = 0
KCO1 151313Z 17006KT 21/14 A2996 RMK A01 T02080141  RH  065%=      5-min Rain = 0
KCO1 151314Z 18007KT 21/14 A2996 RMK A01 T02090142  RH  065%=      5-min Rain = 0
KCO1 151315Z 19006KT 21/14 A2996 RMK A01 T02090141  RH  065%=      5-min Rain = 0
KCO1 151316Z 18006KT 21/14 A2996 RMK A01 T02100140  RH  064%=      5-min Rain = 0
KCO1 151317Z 19007KT 21/14 A2996 RMK A01 T02100138  RH  063%=      5-min Rain = 0
KCO1 151318Z 19007KT 21/14 A2996 RMK A01 T02110136  RH  062%=      5-min Rain = 0
KCO1 151319Z 20006KT 21/14 A2996 RMK A01 T02110136  RH  062%=      5-min Rain = 0
KCO1 151320Z 21005KT 21/14 A2996 RMK A01 T02120137  RH  062%=      5-min Rain = 0
KCO1 151321Z 21006KT 21/14 A2996 RMK A01 T02130137  RH  062%=      5-min Rain = 0
KCO1 151322Z 21005KT 21/14 A2996 RMK A01 T02140135  RH  061%=      5-min Rain = 0
KCO1 151323Z 22006KT 21/14 A2996 RMK A01 T02140135  RH  060%=      5-min Rain = 0
KCO1 151324Z 22008KT 22/13 A2996 RMK A01 T02150134  RH  060%=      5-min Rain = 0
KCO1 151325Z 22008KT 22/13 A2996 RMK A01 T02150132  RH  059%=      5-min Rain = 0
KCO1 151326Z 21006KT 22/13 A2996 RMK A01 T02150132  RH  059%=      5-min Rain = 0
KCO1 151327Z 22008KT 22/13 A2996 RMK A01 T02150132  RH  059%=      5-min Rain = 0
KCO1 151328Z 22008KT 22/13 A2996 RMK A01 T02150130  RH  058%=      5-min Rain = 0
KCO1 151329Z 22008KT 22/13 A2996 RMK A01 T02160131  RH  059%=      5-min Rain = 0
KCO1 151330Z 22008KT 22/13 A2996 RMK A01 T02160130  RH  058%=      5-min Rain = 0
KCO1 151331Z 23007KT 22/13 A2996 RMK A01 T02170131  RH  058%=      5-min Rain = 0
KCO1 151332Z 23007KT 22/13 A2996 RMK A01 T02180131  RH  058%=      5-min Rain = 0
KCO1 151333Z 23007KT 22/13 A2996 RMK A01 T02180131  RH  058%=      5-min Rain = 0
KCO1 151334Z 23005KT 22/13 A2996 RMK A01 T02190132  RH  058%=      5-min Rain = 0
KCO1 151335Z 23006KT 22/13 A2996 RMK A01 T02200131  RH  057%=      5-min Rain = 0
KCO1 151336Z 24005KT 22/13 A2996 RMK A01 T02220131  RH  057%=      5-min Rain = 0
KCO1 151337Z 25005KT 22/13 A2996 RMK A01 T02240131  RH  056%=      5-min Rain = 0
KCO1 151338Z 24007KT 23/13 A2996 RMK A01 T02250131  RH  055%=      5-min Rain = 0
KCO1 151339Z 26005KT 23/13 A2996 RMK A01 T02260132  RH  055%=      5-min Rain = 0
KCO1 151340Z 26008KT 23/13 A2996 RMK A01 T02280131  RH  054%=      5-min Rain = 0
KCO1 151341Z 25009KT 23/13 A2996 RMK A01 T02290129  RH  053%=      5-min Rain = 0
KCO1 151342Z 26008KT 23/13 A2996 RMK A01 T02290128  RH  053%=      5-min Rain = 0
KCO1 151343Z 26008KT 23/13 A2996 RMK A01 T02300129  RH  053%=      5-min Rain = 0
KCO1 151344Z 26007KT 23/13 A2996 RMK A01 T02310129  RH  053%=      5-min Rain = 0
KCO1 151345Z 27008KT 23/13 A2996 RMK A01 T02320130  RH  053%=      5-min Rain = 0
KCO1 151346Z 26008KT 23/13 A2996 RMK A01 T02320129  RH  052%=      5-min Rain = 0
KCO1 151347Z 26008KT 23/13 A2996 RMK A01 T02320130  RH  052%=      5-min Rain = 0
KCO1 151348Z 27008KT 23/13 A2996 RMK A01 T02320131  RH  053%=      5-min Rain = 0
KCO1 151349Z 27010KT 23/13 A2996 RMK A01 T02320130  RH  052%=      5-min Rain = 0
KCO1 151350Z 27009KT 23/13 A2996 RMK A01 T02320129  RH  052%=      5-min Rain = 0
KCO1 151351Z 27009KT 23/13 A2996 RMK A01 T02310128  RH  052%=      5-min Rain = 0
KCO1 151352Z 27009KT 23/13 A2996 RMK A01 T02320128  RH  052%=      5-min Rain = 0
KCO1 151353Z 27010KT 23/13 A2996 RMK A01 T02340125  RH  051%=      5-min Rain = 0
KCO1 151354Z 27008KT 24/13 A2996 RMK A01 T02350125  RH  050%=      5-min Rain = 0
KCO1 151355Z 27008KT 24/12 A2996 RMK A01 T02360124  RH  049%=      5-min Rain = 0
KCO1 151356Z 27008KT 24/12 A2996 RMK A01 T02360124  RH  049%=      5-min Rain = 0
KCO1 151357Z 28008KT 24/12 A2996 RMK A01 T02360124  RH  049%=      5-min Rain = 0
KCO1 151358Z 28009KT 24/12 A2996 RMK A01 T02380124  RH  049%=      5-min Rain = 0
KCO1 151359Z 29008KT 24/12 A2996 RMK A01 T02380124  RH  049%=      5-min Rain = 0
KCO1 151400Z 29008KT 24/12 A2997 RMK A01 T02390124  RH  049%=      5-min Rain = 0
KCO1 151401Z 29009KT 24/13 A2997 RMK A01 T02380125  RH  049%=      5-min Rain = 0
KCO1 151402Z 29009KT 24/12 A2997 RMK A01 T02380124  RH  049%=      5-min Rain = 0
KCO1 151403Z 28009KT 24/12 A2997 RMK A01 T02390123  RH  048%=      5-min Rain = 0
KCO1 151404Z 28009KT 24/12 A2997 RMK A01 T02380123  RH  049%=      5-min Rain = 0
KCO1 151405Z 28008KT 24/12 A2997 RMK A01 T02370123  RH  049%=      5-min Rain = 0
KCO1 151406Z 29007KT 24/13 A2997 RMK A01 T02370125  RH  049%=      5-min Rain = 0
KCO1 151407Z 29008KT 24/13 A2997 RMK A01 T02380127  RH  050%=      5-min Rain = 0
KCO1 151408Z 29008KT 24/13 A2997 RMK A01 T02390126  RH  049%=      5-min Rain = 0
KCO1 151409Z 30009KT 24/13 A2997 RMK A01 T02390126  RH  049%=      5-min Rain = 0
KCO1 151410Z 29008KT 24/13 A2997 RMK A01 T02390126  RH  049%=      5-min Rain = 0
KCO1 151411Z 29007KT 24/13 A2997 RMK A01 T02390125  RH  049%=      5-min Rain = 0
KCO1 151412Z 29007KT 24/13 A2997 RMK A01 T02400125  RH  049%=      5-min Rain = 0
KCO1 151413Z 29006KT 24/13 A2997 RMK A01 T02400126  RH  049%=      5-min Rain = 0
KCO1 151414Z 29009KT 24/13 A2997 RMK A01 T02420127  RH  049%=      5-min Rain = 0
KCO1 151415Z 29009KT 24/12 A2997 RMK A01 T02420123  RH  047%=      5-min Rain = 0
KCO1 151416Z 28009KT 24/12 A2997 RMK A01 T02420123  RH  047%=      5-min Rain = 0
KCO1 151417Z 28009KT 24/12 A2997 RMK A01 T02420122  RH  047%=      5-min Rain = 0
KCO1 151418Z 28008KT 24/12 A2997 RMK A01 T02420124  RH  047%=      5-min Rain = 0
KCO1 151419Z 29008KT 24/12 A2997 RMK A01 T02420124  RH  047%=      5-min Rain = 0
KCO1 151420Z 30008KT 24/12 A2997 RMK A01 T02440124  RH  047%=      5-min Rain = 0
KCO1 151421Z 30008KT 25/12 A2997 RMK A01 T02450122  RH  046%=      5-min Rain = 0
KCO1 151422Z 30007KT 25/12 A2997 RMK A01 T02450122  RH  046%=      5-min Rain = 0
KCO1 151423Z 30008KT 25/12 A2997 RMK A01 T02460121  RH  045%=      5-min Rain = 0
KCO1 151424Z 29008KT 25/12 A2997 RMK A01 T02470121  RH  045%=      5-min Rain = 0
KCO1 151425Z 30007KT 25/12 A2997 RMK A01 T02470122  RH  046%=      5-min Rain = 0
KCO1 151426Z 29008KT 25/12 A2997 RMK A01 T02480122  RH  045%=      5-min Rain = 0
KCO1 151427Z 30010KT 25/12 A2997 RMK A01 T02500121  RH  044%=      5-min Rain = 0
KCO1 151428Z 29010KT 25/12 A2997 RMK A01 T02510119  RH  044%=      5-min Rain = 0
KCO1 151429Z 30008KT 25/12 A2997 RMK A01 T02500119  RH  044%=      5-min Rain = 0
KCO1 151430Z 30007KT 25/12 A2997 RMK A01 T02510120  RH  044%=      5-min Rain = 0
KCO1 151431Z 29007KT 25/12 A2997 RMK A01 T02500120  RH  044%=      5-min Rain = 0
KCO1 151432Z 29008KT 25/12 A2997 RMK A01 T02510120  RH  044%=      5-min Rain = 0
KCO1 151433Z 29006KT 25/12 A2997 RMK A01 T02520120  RH  044%=      5-min Rain = 0
KCO1 151434Z 30006KT 25/12 A2997 RMK A01 T02540121  RH  043%=      5-min Rain = 0
KCO1 151435Z 31007KT 26/12 A2997 RMK A01 T02560120  RH  043%=      5-min Rain = 0
KCO1 151436Z 30007KT 26/12 A2997 RMK A01 T02560119  RH  043%=      5-min Rain = 0
KCO1 151437Z 30005KT 26/12 A2997 RMK A01 T02570121  RH  043%=      5-min Rain = 0
KCO1 151438Z 29009KT 26/12 A2997 RMK A01 T02580119  RH  042%=      5-min Rain = 0
KCO1 151439Z 30009KT 26/12 A2997 RMK A01 T02580118  RH  042%=      5-min Rain = 0
KCO1 151440Z 29008KT 26/12 A2997 RMK A01 T02580117  RH  041%=      5-min Rain = 0
KCO1 151441Z 30007KT 26/12 A2997 RMK A01 T02580118  RH  042%=      5-min Rain = 0
KCO1 151442Z 30007KT 26/12 A2997 RMK A01 T02580118  RH  042%=      5-min Rain = 0
KCO1 151443Z 31007KT 26/12 A2997 RMK A01 T02580119  RH  042%=      5-min Rain = 0
KCO1 151444Z 31008KT 26/12 A2997 RMK A01 T02590118  RH  041%=      5-min Rain = 0
KCO1 151445Z 30008KT 26/12 A2997 RMK A01 T02610118  RH  041%=      5-min Rain = 0
KCO1 151446Z 29006KT 26/12 A2997 RMK A01 T02600118  RH  041%=      5-min Rain = 0
KCO1 151447Z 30006KT 26/12 A2997 RMK A01 T02610120  RH  041%=      5-min Rain = 0
KCO1 151448Z 31007KT 26/12 A2997 RMK A01 T02640117  RH  040%=      5-min Rain = 0
KCO1 151449Z 31006KT 27/12 A2997 RMK A01 T02650118  RH  040%=      5-min Rain = 0
KCO1 151450Z 31007KT 27/12 A2997 RMK A01 T02660119  RH  040%=      5-min Rain = 0
KCO1 151451Z 31006KT 27/12 A2997 RMK A01 T02670118  RH  039%=      5-min Rain = 0
KCO1 151452Z 32006KT 27/12 A2997 RMK A01 T02670118  RH  040%=      5-min Rain = 0
KCO1 151453Z 30006KT 27/12 A2997 RMK A01 T02670118  RH  040%=      5-min Rain = 0
KCO1 151454Z 30005KT 27/12 A2997 RMK A01 T02670119  RH  040%=      5-min Rain = 0
KCO1 151455Z 30005KT 27/12 A2997 RMK A01 T02670119  RH  040%=      5-min Rain = 0
KCO1 151456Z 30008KT 27/12 A2997 RMK A01 T02680118  RH  039%=      5-min Rain = 0
KCO1 151457Z 29007KT 27/12 A2997 RMK A01 T02700115  RH  038%=      5-min Rain = 0
KCO1 151458Z 29007KT 27/12 A2997 RMK A01 T02700117  RH  038%=      5-min Rain = 0
KCO1 151459Z 30006KT 27/12 A2997 RMK A01 T02700118  RH  039%=      5-min Rain = 0
KCO1 151500Z 31005KT 27/12 A2997 RMK A01 T02710118  RH  038%=      5-min Rain = 0
KCO1 151501Z 30005KT 27/12 A2997 RMK A01 T02710118  RH  038%=      5-min Rain = 0
KCO1 151502Z 29006KT 27/12 A2997 RMK A01 T02730118  RH  038%=      5-min Rain = 0
KCO1 151503Z 30006KT 27/12 A2997 RMK A01 T02740117  RH  038%=      5-min Rain = 0
KCO1 151504Z 30005KT 28/12 A2997 RMK A01 T02750117  RH  038%=      5-min Rain = 0
KCO1 151505Z 28006KT 28/12 A2997 RMK A01 T02750119  RH  038%=      5-min Rain = 0
KCO1 151506Z 30006KT 28/12 A2997 RMK A01 T02780118  RH  037%=      5-min Rain = 0
KCO1 151507Z 30006KT 28/12 A2997 RMK A01 T02790115  RH  036%=      5-min Rain = 0
KCO1 151508Z 30006KT 28/12 A2997 RMK A01 T02800116  RH  036%=      5-min Rain = 0
KCO1 151509Z 30004KT 28/12 A2997 RMK A01 T02800118  RH  037%=      5-min Rain = 0
KCO1 151510Z 29006KT 28/12 A2997 RMK A01 T02800117  RH  036%=      5-min Rain = 0
KCO1 151511Z 31006KT 28/12 A2997 RMK A01 T02810116  RH  036%=      5-min Rain = 0
KCO1 151512Z 31006KT 28/12 A2997 RMK A01 T02810117  RH  036%=      5-min Rain = 0
KCO1 151513Z 30006KT 28/12 A2997 RMK A01 T02830117  RH  036%=      5-min Rain = 0
KCO1 151514Z 29005KT 28/12 A2997 RMK A01 T02830116  RH  035%=      5-min Rain = 0
KCO1 151515Z 30005KT 29/12 A2997 RMK A01 T02850117  RH  035%=      5-min Rain = 0
KCO1 151516Z 30006KT 29/12 A2997 RMK A01 T02860117  RH  035%=      5-min Rain = 0
KCO1 151517Z 29006KT 29/12 A2998 RMK A01 T02880116  RH  034%=      5-min Rain = 0
KCO1 151518Z 29007KT 29/11 A2998 RMK A01 T02890114  RH  034%=      5-min Rain = 0
KCO1 151519Z 29007KT 29/11 A2998 RMK A01 T02890113  RH  034%=      5-min Rain = 0
KCO1 151520Z 29005KT 29/11 A2998 RMK A01 T02870113  RH  034%=      5-min Rain = 0
KCO1 151521Z 29005KT 29/11 A2998 RMK A01 T02860114  RH  035%=      5-min Rain = 0
KCO1 151522Z 31008KT 29/12 A2998 RMK A01 T02870115  RH  034%=      5-min Rain = 0
KCO1 151523Z 31008KT 29/11 A2998 RMK A01 T02880113  RH  034%=      5-min Rain = 0
KCO1 151524Z 31007KT 29/11 A2998 RMK A01 T02890114  RH  034%=      5-min Rain = 0
KCO1 151525Z 30008KT 29/11 A2998 RMK A01 T02910114  RH  033%=      5-min Rain = 0
KCO1 151526Z 30008KT 29/11 A2998 RMK A01 T02910112  RH  033%=      5-min Rain = 0
KCO1 151527Z 30008KT 29/11 A2998 RMK A01 T02910113  RH  033%=      5-min Rain = 0
KCO1 151528Z 31009KT 29/11 A2998 RMK A01 T02910113  RH  033%=      5-min Rain = 0
KCO1 151529Z 31008KT 29/11 A2998 RMK A01 T02920112  RH  033%=      5-min Rain = 0
KCO1 151530Z 30009KT 29/11 A2998 RMK A01 T02920112  RH  033%=      5-min Rain = 0
KCO1 151531Z 30008KT 29/11 A2998 RMK A01 T02920112  RH  033%=      5-min Rain = 0
KCO1 151532Z 29006KT 29/11 A2998 RMK A01 T02920112  RH  033%=      5-min Rain = 0
KCO1 151533Z 27008KT 29/11 A2998 RMK A01 T02930113  RH  033%=      5-min Rain = 0
KCO1 151534Z 28007KT 29/11 A2998 RMK A01 T02940113  RH  032%=      5-min Rain = 0
KCO1 151535Z 29008KT 30/11 A2998 RMK A01 T02950113  RH  032%=      5-min Rain = 0
KCO1 151536Z 29009KT 30/11 A2998 RMK A01 T02960113  RH  032%=      5-min Rain = 0
KCO1 151537Z 30007KT 30/11 A2998 RMK A01 T02960113  RH  032%=      5-min Rain = 0
KCO1 151538Z 29008KT 30/11 A2998 RMK A01 T02970110  RH  032%=      5-min Rain = 0
KCO1 151539Z 29005KT 30/11 A2998 RMK A01 T02970109  RH  031%=      5-min Rain = 0
KCO1 151540Z 30007KT 30/11 A2998 RMK A01 T02970111  RH  032%=      5-min Rain = 0
KCO1 151541Z 28007KT 30/11 A2998 RMK A01 T02980111  RH  031%=      5-min Rain = 0
KCO1 151542Z 29005KT 30/11 A2998 RMK A01 T02980113  RH  032%=      5-min Rain = 0
KCO1 151543Z 27005KT 30/11 A2997 RMK A01 T02990112  RH  031%=      5-min Rain = 0
KCO1 151544Z 31007KT 30/11 A2997 RMK A01 T03010113  RH  031%=      5-min Rain = 0
KCO1 151545Z 31006KT 30/11 A2997 RMK A01 T03020111  RH  031%=      5-min Rain = 0
KCO1 151546Z 32008KT 30/11 A2997 RMK A01 T03020111  RH  031%=      5-min Rain = 0
KCO1 151547Z 31007KT 30/11 A2997 RMK A01 T03010110  RH  031%=      5-min Rain = 0
KCO1 151548Z 31006KT 30/11 A2997 RMK A01 T03010110  RH  031%=      5-min Rain = 0
KCO1 151549Z 29007KT 30/11 A2997 RMK A01 T03020111  RH  031%=      5-min Rain = 0
KCO1 151550Z 31007KT 30/11 A2997 RMK A01 T03020111  RH  031%=      5-min Rain = 0
KCO1 151551Z 30008KT 30/11 A2997 RMK A01 T03030111  RH  031%=      5-min Rain = 0
KCO1 151552Z 30007KT 31/11 A2997 RMK A01 T03050112  RH  030%=      5-min Rain = 0
KCO1 151553Z 31007KT 31/11 A2997 RMK A01 T03060110  RH  030%=      5-min Rain = 0
KCO1 151554Z 31006KT 30/11 A2997 RMK A01 T03040108  RH  030%=      5-min Rain = 0
KCO1 151555Z 29006KT 30/11 A2997 RMK A01 T03040108  RH  030%=      5-min Rain = 0
KCO1 151556Z 30008KT 30/11 A2997 RMK A01 T03040109  RH  030%=      5-min Rain = 0
KCO1 151557Z 31006KT 30/11 A2997 RMK A01 T03040108  RH  030%=      5-min Rain = 0
KCO1 151558Z 30005KT 31/11 A2997 RMK A01 T03050108  RH  030%=      5-min Rain = 0
KCO1 151559Z 30004KT 31/11 A2997 RMK A01 T03070109  RH  030%=      5-min Rain = 0
KCO1 151600Z 31006KT 31/11 A2997 RMK A01 T03070110  RH  030%=      5-min Rain = 0
KCO1 151601Z 28008KT 31/11 A2997 RMK A01 T03080105  RH  028%=      5-min Rain = 0
KCO1 151602Z 27006KT 31/11 A2997 RMK A01 T03090105  RH  028%=      5-min Rain = 0
KCO1 151603Z 28007KT 31/11 A2997 RMK A01 T03110106  RH  028%=      5-min Rain = 0
KCO1 151604Z 28006KT 31/11 A2997 RMK A01 T03120107  RH  028%=      5-min Rain = 0
KCO1 151605Z 26004KT 31/11 A2997 RMK A01 T03120107  RH  028%=      5-min Rain = 0
KCO1 151606Z 25003KT 31/11 A2997 RMK A01 T03110107  RH  028%=      5-min Rain = 0
KCO1 151607Z 26005KT 31/11 A2997 RMK A01 T03110107  RH  028%=      5-min Rain = 0
KCO1 151608Z 28006KT 31/11 A2997 RMK A01 T03140109  RH  028%=      5-min Rain = 0
KCO1 151609Z 30006KT 32/11 A2997 RMK A01 T03160108  RH  028%=      5-min Rain = 0
KCO1 151610Z 32005KT 31/11 A2997 RMK A01 T03140107  RH  028%=      5-min Rain = 0
KCO1 151611Z 30005KT 31/11 A2997 RMK A01 T03120108  RH  028%=      5-min Rain = 0
KCO1 151612Z 32004KT 31/11 A2997 RMK A01 T03110109  RH  029%=      5-min Rain = 0
KCO1 151613Z 32005KT 31/11 A2997 RMK A01 T03120110  RH  029%=      5-min Rain = 0
KCO1 151614Z 28006KT 31/11 A2997 RMK A01 T03140110  RH  028%=      5-min Rain = 0
KCO1 151615Z 29005KT 32/11 A2997 RMK A01 T03160108  RH  028%=      5-min Rain = 0
KCO1 151616Z 27004KT 32/11 A2997 RMK A01 T03150108  RH  028%=      5-min Rain = 0
KCO1 151617Z 27003KT 32/11 A2997 RMK A01 T03150109  RH  028%=      5-min Rain = 0
KCO1 151618Z 30003KT 32/11 A2997 RMK A01 T03170109  RH  028%=      5-min Rain = 0
KCO1 151619Z 26007KT 32/11 A2997 RMK A01 T03200109  RH  027%=      5-min Rain = 0
KCO1 151620Z 28005KT 32/11 A2997 RMK A01 T03200107  RH  027%=      5-min Rain = 0
KCO1 151621Z 27004KT 32/11 A2997 RMK A01 T03180107  RH  027%=      5-min Rain = 0
KCO1 151622Z 28006KT 32/11 A2997 RMK A01 T03180106  RH  027%=      5-min Rain = 0
KCO1 151623Z 28005KT 32/11 A2997 RMK A01 T03190105  RH  027%=      5-min Rain = 0
KCO1 151624Z 26003KT 32/10 A2997 RMK A01 T03190102  RH  026%=      5-min Rain = 0
KCO1 151625Z 30004KT 32/11 A2997 RMK A01 T03180105  RH  027%=      5-min Rain = 0
KCO1 151626Z 31004KT 32/11 A2997 RMK A01 T03180106  RH  027%=      5-min Rain = 0
KCO1 151627Z 29003KT 32/11 A2997 RMK A01 T03180105  RH  027%=      5-min Rain = 0
KCO1 151628Z 33001KT 32/11 A2997 RMK A01 T03170106  RH  027%=      5-min Rain = 0
KCO1 151629Z 36003KT 32/11 A2997 RMK A01 T03170107  RH  028%=      5-min Rain = 0
KCO1 151630Z 36001KT 32/11 A2997 RMK A01 T03160106  RH  027%=      5-min Rain = 0
KCO1 151631Z 31001KT 32/11 A2997 RMK A01 T03170107  RH  028%=      5-min Rain = 0
KCO1 151632Z 28005KT 32/10 A2997 RMK A01 T03180104  RH  027%=      5-min Rain = 0
KCO1 151633Z 28005KT 32/10 A2997 RMK A01 T03190100  RH  026%=      5-min Rain = 0
KCO1 151634Z 25004KT 32/10 A2997 RMK A01 T03210098  RH  025%=      5-min Rain = 0
KCO1 151635Z 27006KT 32/10 A2997 RMK A01 T03230101  RH  026%=      5-min Rain = 0
KCO1 151636Z 29005KT 33/10 A2997 RMK A01 T03250103  RH  025%=      5-min Rain = 0
KCO1 151637Z 29003KT 33/10 A2997 RMK A01 T03250100  RH  025%=      5-min Rain = 0
KCO1 151638Z 24004KT 32/10 A2997 RMK A01 T03240102  RH  026%=      5-min Rain = 0
KCO1 151639Z 23004KT 33/10 A2997 RMK A01 T03260099  RH  025%=      5-min Rain = 0
KCO1 151640Z 27004KT 33/10 A2997 RMK A01 T03280101  RH  025%=      5-min Rain = 0
KCO1 151641Z 27005KT 33/10 A2997 RMK A01 T03300103  RH  025%=      5-min Rain = 0
KCO1 151642Z 26005KT 33/10 A2997 RMK A01 T03310104  RH  025%=      5-min Rain = 0
KCO1 151643Z 25002KT 33/10 A2997 RMK A01 T03300102  RH  025%=      5-min Rain = 0
KCO1 151644Z 24002KT 33/10 A2997 RMK A01 T03280103  RH  025%=      5-min Rain = 0
KCO1 151645Z 29005KT 33/10 A2997 RMK A01 T03280104  RH  025%=      5-min Rain = 0
KCO1 151646Z 30007KT 33/10 A2997 RMK A01 T03290101  RH  025%=      5-min Rain = 0
KCO1 151647Z 29007KT 33/10 A2997 RMK A01 T03290097  RH  024%=      5-min Rain = 0
KCO1 151648Z 29005KT 33/10 A2997 RMK A01 T03290097  RH  024%=      5-min Rain = 0
KCO1 151649Z 29005KT 33/10 A2997 RMK A01 T03290097  RH  024%=      5-min Rain = 0
KCO1 151650Z 28005KT 33/10 A2997 RMK A01 T03290097  RH  024%=      5-min Rain = 0
KCO1 151651Z 28004KT 33/10 A2997 RMK A01 T03280098  RH  024%=      5-min Rain = 0
KCO1 151652Z 26003KT 33/10 A2997 RMK A01 T03280098  RH  024%=      5-min Rain = 0
KCO1 151653Z 28003KT 33/10 A2997 RMK A01 T03280097  RH  024%=      5-min Rain = 0
KCO1 151654Z 34001KT 33/09 A2997 RMK A01 T03290094  RH  024%=      5-min Rain = 0
KCO1 151655Z 29004KT 33/09 A2997 RMK A01 T03310094  RH  023%=      5-min Rain = 0
KCO1 151656Z 31006KT 34/09 A2997 RMK A01 T03350094  RH  023%=      5-min Rain = 0
KCO1 151657Z 32004KT 34/09 A2997 RMK A01 T03350093  RH  023%=      5-min Rain = 0
KCO1 151658Z 03001KT 33/09 A2997 RMK A01 T03340091  RH  022%=      5-min Rain = 0
KCO1 151659Z 30002KT 33/09 A2997 RMK A01 T03330092  RH  023%=      5-min Rain = 0
KCO1 151700Z 31003KT 33/09 A2997 RMK A01 T03330092  RH  023%=      5-min Rain = 0
KCO1 151701Z 28006KT 33/09 A2997 RMK A01 T03340090  RH  022%=      5-min Rain = 0
KCO1 151702Z 28005KT 33/09 A2997 RMK A01 T03340089  RH  022%=      5-min Rain = 0
KCO1 151703Z 30007KT 34/09 A2997 RMK A01 T03360088  RH  022%=      5-min Rain = 0
KCO1 151704Z 29005KT 34/09 A2997 RMK A01 T03360088  RH  022%=      5-min Rain = 0
KCO1 151705Z 30004KT 34/09 A2997 RMK A01 T03370088  RH  022%=      5-min Rain = 0
KCO1 151706Z 29007G12KT 34/09 A2997 RMK A01 T03380088  RH  022%=      5-min Rain = 0
KCO1 151707Z 28009KT 34/09 A2997 RMK A01 T03390091  RH  022%=      5-min Rain = 0
KCO1 151708Z 27005KT 34/09 A2997 RMK A01 T03390090  RH  022%=      5-min Rain = 0
KCO1 151709Z 29007KT 34/09 A2997 RMK A01 T03390091  RH  022%=      5-min Rain = 0
KCO1 151710Z 27007KT 34/09 A2997 RMK A01 T03410089  RH  021%=      5-min Rain = 0
KCO1 151711Z 26006KT 34/09 A2997 RMK A01 T03430085  RH  020%=      5-min Rain = 0
KCO1 151712Z 22006KT 34/08 A2997 RMK A01 T03420082  RH  020%=      5-min Rain = 0
KCO1 151713Z 21005KT 34/08 A2997 RMK A01 T03420083  RH  020%=      5-min Rain = 0
KCO1 151714Z 25005KT 35/09 A2997 RMK A01 T03450086  RH  020%=      5-min Rain = 0
KCO1 151715Z 29006KT 35/09 A2997 RMK A01 T03460087  RH  020%=      5-min Rain = 0
KCO1 151716Z 30007KT 35/09 A2997 RMK A01 T03450086  RH  020%=      5-min Rain = 0
KCO1 151717Z 31006KT 34/09 A2997 RMK A01 T03410085  RH  021%=      5-min Rain = 0
KCO1 151718Z 28008KT 34/09 A2997 RMK A01 T03410088  RH  021%=      5-min Rain = 0
KCO1 151719Z 27008KT 34/09 A2997 RMK A01 T03440089  RH  021%=      5-min Rain = 0
KCO1 151720Z 28008KT 35/09 A2997 RMK A01 T03450088  RH  021%=      5-min Rain = 0
KCO1 151721Z 26004KT 35/09 A2997 RMK A01 T03450086  RH  020%=      5-min Rain = 0
KCO1 151722Z 25002KT 35/09 A2997 RMK A01 T03450086  RH  020%=      5-min Rain = 0
KCO1 151723Z 29001KT 34/09 A2997 RMK A01 T03440086  RH  021%=      5-min Rain = 0
KCO1 151724Z 28006KT 35/09 A2997 RMK A01 T03450087  RH  021%=      5-min Rain = 0
KCO1 151725Z 27004KT 34/09 A2997 RMK A01 T03440087  RH  021%=      5-min Rain = 0
KCO1 151726Z 30003KT 34/09 A2997 RMK A01 T03440087  RH  021%=      5-min Rain = 0
KCO1 151727Z 28004KT 34/09 A2997 RMK A01 T03440087  RH  021%=      5-min Rain = 0
KCO1 151728Z 28004KT 34/09 A2997 RMK A01 T03440088  RH  021%=      5-min Rain = 0
KCO1 151729Z 26004KT 34/09 A2997 RMK A01 T03440085  RH  020%=      5-min Rain = 0
KCO1 151730Z 28005KT 34/09 A2997 RMK A01 T03440085  RH  020%=      5-min Rain = 0
KCO1 151731Z 30004KT 34/08 A2997 RMK A01 T03440083  RH  020%=      5-min Rain = 0
KCO1 151732Z 29003KT 34/08 A2997 RMK A01 T03440082  RH  020%=      5-min Rain = 0
KCO1 151733Z 28006KT 35/08 A2997 RMK A01 T03450079  RH  019%=      5-min Rain = 0
KCO1 151734Z 27008KT 35/08 A2996 RMK A01 T03480076  RH  019%=      5-min Rain = 0
KCO1 151735Z 27009KT 35/08 A2997 RMK A01 T03500080  RH  019%=      5-min Rain = 0
KCO1 151736Z 26008KT 35/08 A2996 RMK A01 T03500079  RH  019%=      5-min Rain = 0
KCO1 151737Z 24005KT 35/08 A2996 RMK A01 T03470078  RH  019%=      5-min Rain = 0
KCO1 151738Z 26003KT 35/08 A2996 RMK A01 T03460078  RH  019%=      5-min Rain = 0
KCO1 151739Z 26005KT 35/07 A2996 RMK A01 T03470073  RH  019%=      5-min Rain = 0
KCO1 151740Z 23008KT 35/08 A2996 RMK A01 T03490075  RH  019%=      5-min Rain = 0
KCO1 151741Z 23005KT 35/07 A2996 RMK A01 T03530065  RH  017%=      5-min Rain = 0
KCO1 151742Z 23007G12KT 36/07 A2996 RMK A01 T03550065  RH  017%=      5-min Rain = 0
KCO1 151743Z 26012KT 36/06 A2996 RMK A01 T03580064  RH  016%=      5-min Rain = 0
KCO1 151744Z 25007KT 35/06 A2996 RMK A01 T03540061  RH  016%=      5-min Rain = 0
KCO1 151745Z 27006KT 35/06 A2996 RMK A01 T03530062  RH  017%=      5-min Rain = 0
KCO1 151746Z 27006KT 35/06 A2996 RMK A01 T03540059  RH  016%=      5-min Rain = 0
KCO1 151747Z 26004KT 35/07 A2996 RMK A01 T03530065  RH  017%=      5-min Rain = 0
KCO1 151748Z 23001KT 35/07 A2996 RMK A01 T03520066  RH  017%=      5-min Rain = 0
KCO1 151749Z 12000KT 35/07 A2996 RMK A01 T03510068  RH  017%=      5-min Rain = 0
KCO1 151750Z 28006KT 35/07 A2996 RMK A01 T03520068  RH  017%=      5-min Rain = 0
KCO1 151751Z 28007KT 35/06 A2996 RMK A01 T03540059  RH  016%=      5-min Rain = 0
KCO1 151752Z 29007KT 36/06 A2996 RMK A01 T03570062  RH  016%=      5-min Rain = 0
KCO1 151753Z 31006KT 36/06 A2996 RMK A01 T03600061  RH  016%=      5-min Rain = 0
KCO1 151754Z 32007KT 36/06 A2996 RMK A01 T03580063  RH  016%=      5-min Rain = 0
KCO1 151755Z 31004KT 35/06 A2996 RMK A01 T03540062  RH  016%=      5-min Rain = 0
KCO1 151756Z 29007KT 35/07 A2996 RMK A01 T03530066  RH  017%=      5-min Rain = 0
KCO1 151757Z 25006KT 36/07 A2996 RMK A01 T03550065  RH  017%=      5-min Rain = 0
KCO1 151758Z 29007KT 36/06 A2996 RMK A01 T03580063  RH  016%=      5-min Rain = 0
KCO1 151759Z 28007KT 36/06 A2996 RMK A01 T03580061  RH  016%=      5-min Rain = 0
KCO1 151800Z 27008KT 36/06 A2996 RMK A01 T03590063  RH  016%=      5-min Rain = 0
KCO1 151801Z 29007KT 36/06 A2995 RMK A01 T03590063  RH  016%=      5-min Rain = 0
KCO1 151802Z 30007KT 36/06 A2995 RMK A01 T03560062  RH  016%=      5-min Rain = 0
KCO1 151803Z 30006KT 35/06 A2995 RMK A01 T03540062  RH  017%=      5-min Rain = 0
KCO1 151804Z 29006KT 36/06 A2995 RMK A01 T03550062  RH  016%=      5-min Rain = 0
KCO1 151805Z 27006KT 36/06 A2995 RMK A01 T03550062  RH  016%=      5-min Rain = 0
KCO1 151806Z 25008KT 36/06 A2995 RMK A01 T03570062  RH  016%=      5-min Rain = 0
KCO1 151807Z 25007KT 36/06 A2995 RMK A01 T03590058  RH  016%=      5-min Rain = 0
KCO1 151808Z 26004KT 36/05 A2995 RMK A01 T03600052  RH  015%=      5-min Rain = 0
KCO1 151809Z 25003KT 36/05 A2995 RMK A01 T03590051  RH  015%=      5-min Rain = 0
KCO1 151810Z 24004KT 36/06 A2995 RMK A01 T03590055  RH  015%=      5-min Rain = 0
KCO1 151811Z 28004KT 36/05 A2995 RMK A01 T03610054  RH  015%=      5-min Rain = 0
KCO1 151812Z 25002KT 36/05 A2995 RMK A01 T03600051  RH  015%=      5-min Rain = 0
KCO1 151813Z 22004KT 36/06 A2995 RMK A01 T03580055  RH  015%=      5-min Rain = 0
KCO1 151814Z 27002KT 36/06 A2995 RMK A01 T03570056  RH  016%=      5-min Rain = 0
KCO1 151815Z 24005KT 36/06 A2995 RMK A01 T03570055  RH  015%=      5-min Rain = 0
KCO1 151816Z 23006KT 36/04 A2995 RMK A01 T03570036  RH  014%=      5-min Rain = 0
KCO1 151817Z 22008KT 36/03 A2995 RMK A01 T03610032  RH  013%=      5-min Rain = 0
KCO1 151818Z 21007KT 37/04 A2995 RMK A01 T03650039  RH  013%=      5-min Rain = 0
KCO1 151819Z 19007KT 36/04 A2995 RMK A01 T03640038  RH  013%=      5-min Rain = 0
KCO1 151820Z 18004KT 37/04 A2995 RMK A01 T03650042  RH  014%=      5-min Rain = 0
KCO1 151821Z 22002KT 36/04 A2995 RMK A01 T03640043  RH  014%=      5-min Rain = 0
KCO1 151822Z 19002KT 36/05 A2995 RMK A01 T03640046  RH  014%=      5-min Rain = 0
KCO1 151823Z 11002KT 37/05 A2995 RMK A01 T03670045  RH  014%=      5-min Rain = 0
KCO1 151824Z 34001KT 37/04 A2995 RMK A01 T03670039  RH  013%=      5-min Rain = 0
KCO1 151825Z 03002KT 37/04 A2995 RMK A01 T03670039  RH  013%=      5-min Rain = 0
KCO1 151826Z 02003KT 37/04 A2995 RMK A01 T03660044  RH  014%=      5-min Rain = 0
KCO1 151827Z 01002KT 36/04 A2994 RMK A01 T03640040  RH  013%=      5-min Rain = 0
KCO1 151828Z 35002KT 36/04 A2994 RMK A01 T03620041  RH  014%=      5-min Rain = 0
KCO1 151829Z 34004KT 36/04 A2994 RMK A01 T03630035  RH  013%=      5-min Rain = 0
KCO1 151830Z 31005KT 36/04 A2994 RMK A01 T03640041  RH  013%=      5-min Rain = 0
KCO1 151831Z 28006KT 37/05 A2994 RMK A01 T03660048  RH  014%=      5-min Rain = 0
KCO1 151832Z 29007KT 37/05 A2994 RMK A01 T03660046  RH  014%=      5-min Rain = 0
KCO1 151833Z 29004KT 36/04 A2994 RMK A01 T03640043  RH  014%=      5-min Rain = 0
KCO1 151834Z 27004KT 36/04 A2994 RMK A01 T03610041  RH  014%=      5-min Rain = 0
KCO1 151835Z 29004KT 36/04 A2994 RMK A01 T03600039  RH  014%=      5-min Rain = 0
KCO1 151836Z 33003KT 36/04 A2994 RMK A01 T03580038  RH  014%=      5-min Rain = 0
KCO1 151837Z 35004KT 36/04 A2994 RMK A01 T03590039  RH  014%=      5-min Rain = 0
KCO1 151838Z 01003KT 36/04 A2994 RMK A01 T03600041  RH  014%=      5-min Rain = 0
KCO1 151839Z 34006KT 36/04 A2994 RMK A01 T03600037  RH  013%=      5-min Rain = 0
KCO1 151840Z 31006KT 36/04 A2994 RMK A01 T03620035  RH  013%=      5-min Rain = 0
KCO1 151841Z 31006KT 36/03 A2994 RMK A01 T03630032  RH  013%=      5-min Rain = 0
KCO1 151842Z 32005KT 36/03 A2994 RMK A01 T03620032  RH  013%=      5-min Rain = 0
KCO1 151843Z 33006KT 36/04 A2994 RMK A01 T03610035  RH  013%=      5-min Rain = 0
KCO1 151844Z 34007KT 36/04 A2994 RMK A01 T03610037  RH  013%=      5-min Rain = 0
KCO1 151845Z 34005KT 36/04 A2994 RMK A01 T03630038  RH  013%=      5-min Rain = 0
KCO1 151846Z 36005KT 36/04 A2994 RMK A01 T03640037  RH  013%=      5-min Rain = 0
KCO1 151847Z 35005KT 36/04 A2994 RMK A01 T03640036  RH  013%=      5-min Rain = 0
KCO1 151848Z 00003KT 37/04 A2994 RMK A01 T03650035  RH  013%=      5-min Rain = 0
KCO1 151849Z 02006KT 37/04 A2994 RMK A01 T03670037  RH  013%=      5-min Rain = 0
KCO1 151850Z 03006KT 37/04 A2994 RMK A01 T03690035  RH  013%=      5-min Rain = 0
KCO1 151851Z 03005KT 37/03 A2994 RMK A01 T03660034  RH  013%=      5-min Rain = 0
KCO1 151852Z 03004KT 37/04 A2994 RMK A01 T03670036  RH  013%=      5-min Rain = 0
KCO1 151853Z 04005KT 37/03 A2994 RMK A01 T03690034  RH  013%=      5-min Rain = 0
KCO1 151854Z 05005KT 37/03 A2993 RMK A01 T03680034  RH  013%=      5-min Rain = 0
KCO1 151855Z 03004KT 37/03 A2993 RMK A01 T03690033  RH  012%=      5-min Rain = 0
KCO1 151856Z 02004KT 37/03 A2993 RMK A01 T03670031  RH  012%=      5-min Rain = 0
KCO1 151857Z 03001KT 37/03 A2993 RMK A01 T03670031  RH  012%=      5-min Rain = 0
KCO1 151858Z 01003KT 37/03 A2993 RMK A01 T03680033  RH  013%=      5-min Rain = 0
KCO1 151859Z 04003KT 37/03 A2993 RMK A01 T03710032  RH  012%=      5-min Rain = 0
KCO1 151900Z 05001KT 37/03 A2993 RMK A01 T03710032  RH  012%=      5-min Rain = 0
KCO1 151901Z 33001KT 37/03 A2993 RMK A01 T03740033  RH  012%=      5-min Rain = 0
KCO1 151902Z 32004KT 38/03 A2993 RMK A01 T03750031  RH  012%=      5-min Rain = 0
KCO1 151903Z 35006KT 38/03 A2993 RMK A01 T03750029  RH  012%=      5-min Rain = 0
KCO1 151904Z 34006KT 37/02 A2993 RMK A01 T03740023  RH  011%=      5-min Rain = 0
KCO1 151905Z 33004KT 37/02 A2993 RMK A01 T03710021  RH  011%=      5-min Rain = 0
KCO1 151906Z 32003KT 37/02 A2993 RMK A01 T03670021  RH  011%=      5-min Rain = 0
KCO1 151907Z 29002KT 36/02 A2993 RMK A01 T03640021  RH  012%=      5-min Rain = 0
KCO1 151908Z 31004KT 37/02 A2993 RMK A01 T03660024  RH  012%=      5-min Rain = 0
KCO1 151909Z 33003KT 37/02 A2993 RMK A01 T03680022  RH  012%=      5-min Rain = 0
KCO1 151910Z 32004KT 37/02 A2993 RMK A01 T03690023  RH  012%=      5-min Rain = 0
KCO1 151911Z 32001KT 37/02 A2993 RMK A01 T03690021  RH  011%=      5-min Rain = 0
KCO1 151912Z 21002KT 37/02 A2993 RMK A01 T03690022  RH  011%=      5-min Rain = 0
KCO1 151913Z 18006KT 37/01 A2993 RMK A01 T03700010  RH  011%=      5-min Rain = 0
KCO1 151914Z 17004KT 37/M00 A2993 RMK A01 T03731004  RH  009%=      5-min Rain = 0
KCO1 151915Z 18004KT 37/M00 A2993 RMK A01 T03721001  RH  010%=      5-min Rain = 0
KCO1 151916Z 19005KT 37/M01 A2993 RMK A01 T03741005  RH  009%=      5-min Rain = 0
KCO1 151917Z 21006KT 38/M00 A2993 RMK A01 T03771001  RH  009%=      5-min Rain = 0
KCO1 151918Z 17004KT 38/M00 A2993 RMK A01 T03821002  RH  009%=      5-min Rain = 0
KCO1 151919Z 16003KT 38/M01 A2993 RMK A01 T03831005  RH  009%=      5-min Rain = 0
KCO1 151920Z 14005KT 38/M00 A2993 RMK A01 T03821002  RH  009%=      5-min Rain = 0
KCO1 151921Z 14005KT 38/M02 A2993 RMK A01 T03791018  RH  008%=      5-min Rain = 0
KCO1 151922Z 14005KT 38/M02 A2993 RMK A01 T03791016  RH  008%=      5-min Rain = 0
KCO1 151923Z 13005KT 38/M01 A2993 RMK A01 T03791014  RH  008%=      5-min Rain = 0
KCO1 151924Z 12007KT 38/M01 A2993 RMK A01 T03791008  RH  009%=      5-min Rain = 0
KCO1 151925Z 13004KT 38/M01 A2993 RMK A01 T03771009  RH  009%=      5-min Rain = 0
KCO1 151926Z 16005KT 38/M01 A2992 RMK A01 T03761006  RH  009%=      5-min Rain = 0
KCO1 151927Z 14006KT 38/M00 A2992 RMK A01 T03771003  RH  009%=      5-min Rain = 0
KCO1 151928Z 15008KT 38/00 A2992 RMK A01 T03760001  RH  009%=      5-min Rain = 0
KCO1 151929Z 16004KT 38/00 A2992 RMK A01 T03750003  RH  010%=      5-min Rain = 0
KCO1 151930Z 20004KT 38/01 A2992 RMK A01 T03770011  RH  010%=      5-min Rain = 0
KCO1 151931Z 20006KT 38/01 A2992 RMK A01 T03810013  RH  010%=      5-min Rain = 0
KCO1 151932Z 15003KT 38/01 A2992 RMK A01 T03820013  RH  010%=      5-min Rain = 0
KCO1 151933Z 10002KT 38/01 A2992 RMK A01 T03800007  RH  010%=      5-min Rain = 0
KCO1 151934Z 14005KT 38/01 A2992 RMK A01 T03800010  RH  010%=      5-min Rain = 0
KCO1 151935Z 14004KT 38/01 A2992 RMK A01 T03800010  RH  010%=      5-min Rain = 0
KCO1 151936Z 11006KT 38/01 A2992 RMK A01 T03760010  RH  010%=      5-min Rain = 0
KCO1 151937Z 12004KT 38/01 A2992 RMK A01 T03750009  RH  010%=      5-min Rain = 0
KCO1 151938Z 12006KT 38/01 A2992 RMK A01 T03750012  RH  010%=      5-min Rain = 0
KCO1 151939Z 10006KT 38/01 A2992 RMK A01 T03760011  RH  010%=      5-min Rain = 0
KCO1 151940Z 09008KT 38/01 A2992 RMK A01 T03760012  RH  010%=      5-min Rain = 0
KCO1 151941Z 09006KT 38/01 A2992 RMK A01 T03760009  RH  010%=      5-min Rain = 0
KCO1 151942Z 09005KT 38/01 A2992 RMK A01 T03750010  RH  010%=      5-min Rain = 0
KCO1 151943Z 09005KT 37/01 A2992 RMK A01 T03740009  RH  010%=      5-min Rain = 0
KCO1 151944Z 08005KT 37/01 A2992 RMK A01 T03730009  RH  010%=      5-min Rain = 0
KCO1 151945Z 07004KT 37/01 A2992 RMK A01 T03730009  RH  010%=      5-min Rain = 0
KCO1 151946Z 16006KT 38/01 A2992 RMK A01 T03750013  RH  010%=      5-min Rain = 0
KCO1 151947Z 17006KT 38/01 A2992 RMK A01 T03760011  RH  010%=      5-min Rain = 0
KCO1 151948Z 17005KT 38/01 A2991 RMK A01 T03750013  RH  010%=      5-min Rain = 0
KCO1 151949Z 18006KT 38/02 A2991 RMK A01 T03760015  RH  010%=      5-min Rain = 0
KCO1 151950Z 19007KT 38/01 A2991 RMK A01 T03780014  RH  010%=      5-min Rain = 0
KCO1 151951Z 19010KT 38/02 A2991 RMK A01 T03780015  RH  010%=      5-min Rain = 0
KCO1 151952Z 18007KT 38/02 A2991 RMK A01 T03780016  RH  010%=      5-min Rain = 0
KCO1 151953Z 17004KT 38/02 A2991 RMK A01 T03800016  RH  010%=      5-min Rain = 0
KCO1 151954Z 22008KT 38/02 A2991 RMK A01 T03820015  RH  010%=      5-min Rain = 0
KCO1 151955Z 22010KT 38/02 A2991 RMK A01 T03810015  RH  010%=      5-min Rain = 0
KCO1 151956Z 23009KT 38/01 A2991 RMK A01 T03830014  RH  010%=      5-min Rain = 0
KCO1 151957Z 19011KT 38/01 A2991 RMK A01 T03820013  RH  010%=      5-min Rain = 0
KCO1 151958Z 20009KT 38/01 A2991 RMK A01 T03810014  RH  010%=      5-min Rain = 0
KCO1 151959Z 21006KT 38/01 A2991 RMK A01 T03810013  RH  010%=      5-min Rain = 0
KCO1 152000Z 20005KT 38/01 A2991 RMK A01 T03810012  RH  010%=      5-min Rain = 0
KCO1 152001Z 20006KT 38/01 A2991 RMK A01 T03800013  RH  010%=      5-min Rain = 0
KCO1 152002Z 21004KT 38/01 A2991 RMK A01 T03790012  RH  010%=      5-min Rain = 0
KCO1 152003Z 19006KT 38/01 A2991 RMK A01 T03800013  RH  010%=      5-min Rain = 0
KCO1 152004Z 22004KT 38/01 A2991 RMK A01 T03800010  RH  010%=      5-min Rain = 0
KCO1 152005Z 18005KT 38/01 A2991 RMK A01 T03790011  RH  010%=      5-min Rain = 0
KCO1 152006Z 20010KT 38/01 A2991 RMK A01 T03790012  RH  010%=      5-min Rain = 0
KCO1 152007Z 19011KT 38/01 A2991 RMK A01 T03790012  RH  010%=      5-min Rain = 0
KCO1 152008Z 17007KT 38/01 A2991 RMK A01 T03810011  RH  010%=      5-min Rain = 0
KCO1 152009Z 18008KT 38/01 A2991 RMK A01 T03810012  RH  010%=      5-min Rain = 0
KCO1 152010Z 22007KT 38/01 A2991 RMK A01 T03810009  RH  010%=      5-min Rain = 0
KCO1 152011Z 25006KT 38/01 A2991 RMK A01 T03800007  RH  010%=      5-min Rain = 0
KCO1 152012Z 26004KT 38/01 A299 RMK A01 T03770006  RH  010%=      5-min Rain = 0
KCO1 152013Z 26002KT 37/01 A299 RMK A01 T03720005  RH  010%=      5-min Rain = 0
KCO1 152014Z 16002KT 37/01 A299 RMK A01 T03710008  RH  010%=      5-min Rain = 0
KCO1 152015Z 23007KT 37/01 A299 RMK A01 T03720009  RH  010%=      5-min Rain = 0
KCO1 152016Z 24009KT 37/01 A299 RMK A01 T03710007  RH  010%=      5-min Rain = 0
KCO1 152017Z 25006KT 37/01 A299 RMK A01 T03710010  RH  010%=      5-min Rain = 0
KCO1 152018Z 26005KT 37/01 A299 RMK A01 T03740009  RH  010%=      5-min Rain = 0
KCO1 152019Z 23007KT 38/01 A299 RMK A01 T03780012  RH  010%=      5-min Rain = 0
KCO1 152020Z 21008KT 38/01 A299 RMK A01 T03820012  RH  010%=      5-min Rain = 0
KCO1 152021Z 21008KT 38/01 A299 RMK A01 T03840009  RH  010%=      5-min Rain = 0
KCO1 152022Z 20005KT 38/01 A299 RMK A01 T03810008  RH  010%=      5-min Rain = 0
KCO1 152023Z 21006KT 38/01 A299 RMK A01 T03780007  RH  010%=      5-min Rain = 0
KCO1 152024Z 23005KT 38/01 A299 RMK A01 T03760008  RH  010%=      5-min Rain = 0
KCO1 152025Z 19006KT 38/01 A299 RMK A01 T03760009  RH  010%=      5-min Rain = 0
KCO1 152026Z 17004KT 38/01 A299 RMK A01 T03760008  RH  010%=      5-min Rain = 0
KCO1 152027Z 22004KT 38/01 A299 RMK A01 T03770008  RH  010%=      5-min Rain = 0
KCO1 152028Z 23003KT 38/01 A299 RMK A01 T03790006  RH  010%=      5-min Rain = 0
KCO1 152029Z 25001KT 38/01 A299 RMK A01 T03790006  RH  010%=      5-min Rain = 0
KCO1 152030Z 22005G11KT 38/01 A299 RMK A01 T03780006  RH  010%=      5-min Rain = 0
KCO1 152031Z 20006KT 38/01 A299 RMK A01 T03790008  RH  010%=      5-min Rain = 0
KCO1 152032Z 23003KT 38/01 A299 RMK A01 T03810008  RH  010%=      5-min Rain = 0
KCO1 152033Z 26002KT 38/01 A299 RMK A01 T03810006  RH  010%=      5-min Rain = 0
KCO1 152034Z 31002KT 38/01 A299 RMK A01 T03800007  RH  010%=      5-min Rain = 0
KCO1 152035Z 03004KT 38/01 A299 RMK A01 T03790005  RH  010%=      5-min Rain = 0
KCO1 152036Z 04004KT 38/01 A2989 RMK A01 T03760006  RH  010%=      5-min Rain = 0
KCO1 152037Z 04003KT 38/01 A2989 RMK A01 T03750007  RH  010%=      5-min Rain = 0
KCO1 152038Z 03003KT 38/01 A2989 RMK A01 T03770006  RH  010%=      5-min Rain = 0
KCO1 152039Z 04004KT 38/01 A2989 RMK A01 T03790008  RH  010%=      5-min Rain = 0
KCO1 152040Z 03005KT 38/01 A2989 RMK A01 T03810008  RH  010%=      5-min Rain = 0
KCO1 152041Z 02004KT 38/01 A2989 RMK A01 T03800006  RH  010%=      5-min Rain = 0
KCO1 152042Z 02001KT 38/01 A2989 RMK A01 T03780008  RH  010%=      5-min Rain = 0
KCO1 152043Z 31000KT 38/01 A2989 RMK A01 T03800007  RH  010%=      5-min Rain = 0
KCO1 152044Z 28000KT 38/01 A2989 RMK A01 T03810007  RH  010%=      5-min Rain = 0
KCO1 152045Z 12002KT 38/01 A2989 RMK A01 T03830009  RH  010%=      5-min Rain = 0
KCO1 152046Z 14006KT 39/01 A2989 RMK A01 T03860009  RH  010%=      5-min Rain = 0
KCO1 152047Z 14008KT 39/01 A2989 RMK A01 T03860008  RH  009%=      5-min Rain = 0
KCO1 152048Z 14007KT 38/01 A2989 RMK A01 T03830006  RH  009%=      5-min Rain = 0
KCO1 152049Z 13005KT 38/01 A2989 RMK A01 T03800006  RH  010%=      5-min Rain = 0
KCO1 152050Z 13007KT 38/01 A2989 RMK A01 T03770005  RH  010%=      5-min Rain = 0
KCO1 152051Z 13005KT 38/01 A2989 RMK A01 T03760006  RH  010%=      5-min Rain = 0
KCO1 152052Z 07002KT 37/00 A2989 RMK A01 T03730004  RH  010%=      5-min Rain = 0
KCO1 152053Z 14002KT 37/00 A2989 RMK A01 T03700004  RH  010%=      5-min Rain = 0
KCO1 152054Z 29004KT 37/01 A2989 RMK A01 T03690005  RH  010%=      5-min Rain = 0
KCO1 152055Z 29006KT 37/01 A2989 RMK A01 T03710007  RH  010%=      5-min Rain = 0
KCO1 152056Z 28006KT 37/01 A2989 RMK A01 T03720007  RH  010%=      5-min Rain = 0
KCO1 152057Z 27004KT 37/01 A2989 RMK A01 T03720006  RH  010%=      5-min Rain = 0
KCO1 152058Z 28003KT 37/01 A2988 RMK A01 T03690005  RH  010%=      5-min Rain = 0
KCO1 152059Z 28001KT 37/00 A2988 RMK A01 T03680004  RH  010%=      5-min Rain = 0
KCO1 152100Z 32000KT 37/00 A2988 RMK A01 T03670004  RH  010%=      5-min Rain = 0
KCO1 152101Z 07001KT 37/01 A2988 RMK A01 T03670005  RH  010%=      5-min Rain = 0
KCO1 152102Z 27000KT 37/01 A2988 RMK A01 T03680006  RH  010%=      5-min Rain = 0
KCO1 152103Z 25005KT 37/01 A2988 RMK A01 T03700006  RH  010%=      5-min Rain = 0
KCO1 152104Z 25004KT 37/01 A2988 RMK A01 T03700007  RH  010%=      5-min Rain = 0
KCO1 152105Z 25003KT 37/01 A2988 RMK A01 T03700006  RH  010%=      5-min Rain = 0
KCO1 152106Z 24004KT 37/01 A2988 RMK A01 T03690006  RH  010%=      5-min Rain = 0
KCO1 152107Z 19004KT 37/01 A2988 RMK A01 T03680008  RH  010%=      5-min Rain = 0
KCO1 152108Z 17006KT 37/01 A2988 RMK A01 T03710008  RH  010%=      5-min Rain = 0
KCO1 152109Z 19006KT 37/01 A2988 RMK A01 T03710007  RH  010%=      5-min Rain = 0
KCO1 152110Z 18009KT 37/01 A2988 RMK A01 T03710008  RH  010%=      5-min Rain = 0
KCO1 152111Z 17007KT 37/01 A2988 RMK A01 T03710007  RH  010%=      5-min Rain = 0
KCO1 152112Z 18006KT 37/01 A2988 RMK A01 T03690005  RH  010%=      5-min Rain = 0
KCO1 152113Z 17006KT 37/01 A2988 RMK A01 T03690008  RH  010%=      5-min Rain = 0
KCO1 152114Z 15002KT 37/01 A2988 RMK A01 T03720005  RH  010%=      5-min Rain = 0
KCO1 152115Z 20002KT 37/01 A2988 RMK A01 T03730006  RH  010%=      5-min Rain = 0
KCO1 152116Z 23003KT 38/01 A2987 RMK A01 T03760008  RH  010%=      5-min Rain = 0
KCO1 152117Z 25004KT 38/01 A2987 RMK A01 T03780007  RH  010%=      5-min Rain = 0
KCO1 152118Z 25002KT 38/01 A2987 RMK A01 T03780006  RH  010%=      5-min Rain = 0
KCO1 152119Z 25004KT 38/01 A2987 RMK A01 T03790007  RH  010%=      5-min Rain = 0
KCO1 152120Z 24004KT 38/01 A2987 RMK A01 T03800007  RH  010%=      5-min Rain = 0
KCO1 152121Z 21004KT 38/01 A2987 RMK A01 T03800008  RH  010%=      5-min Rain = 0
KCO1 152122Z 15009G15KT 38/01 A2987 RMK A01 T03800006  RH  010%=      5-min Rain = 0
KCO1 152123Z 11007KT 38/01 A2987 RMK A01 T03830008  RH  010%=      5-min Rain = 0
KCO1 152124Z 11005KT 38/01 A2987 RMK A01 T03840006  RH  009%=      5-min Rain = 0
KCO1 152125Z 11005G10KT 38/01 A2987 RMK A01 T03830005  RH  009%=      5-min Rain = 0
KCO1 152126Z 13007KT 38/01 A2987 RMK A01 T03820005  RH  009%=      5-min Rain = 0
KCO1 152127Z 11004KT 38/01 A2987 RMK A01 T03810006  RH  010%=      5-min Rain = 0
KCO1 152128Z 14007KT 38/01 A2987 RMK A01 T03830005  RH  009%=      5-min Rain = 0
KCO1 152129Z 13007KT 38/01 A2987 RMK A01 T03840006  RH  009%=      5-min Rain = 0
KCO1 152130Z 14007KT 38/01 A2987 RMK A01 T03840006  RH  009%=      5-min Rain = 0
KCO1 152131Z 17009KT 39/01 A2987 RMK A01 T03860007  RH  009%=      5-min Rain = 0
KCO1 152132Z 19009KT 39/01 A2987 RMK A01 T03850007  RH  009%=      5-min Rain = 0
KCO1 152133Z 18008KT 38/01 A2987 RMK A01 T03840007  RH  010%=      5-min Rain = 0
KCO1 152134Z 19010KT 38/01 A2987 RMK A01 T03840007  RH  010%=      5-min Rain = 0
KCO1 152135Z 19009KT 38/01 A2987 RMK A01 T03840006  RH  009%=      5-min Rain = 0
KCO1 152136Z 19009KT 38/01 A2987 RMK A01 T03820007  RH  010%=      5-min Rain = 0
KCO1 152137Z 18010KT 38/01 A2987 RMK A01 T03810008  RH  010%=      5-min Rain = 0
KCO1 152138Z 19013KT 38/01 A2986 RMK A01 T03820006  RH  010%=      5-min Rain = 0
KCO1 152139Z 15009KT 38/01 A2986 RMK A01 T03840007  RH  009%=      5-min Rain = 0
KCO1 152140Z 15009KT 38/00 A2987 RMK A01 T03840004  RH  009%=      5-min Rain = 0
KCO1 152141Z 15007KT 38/00 A2987 RMK A01 T03790002  RH  009%=      5-min Rain = 0
KCO1 152142Z 17007KT 38/00 A2986 RMK A01 T03760004  RH  010%=      5-min Rain = 0
KCO1 152143Z 16010KT 38/01 A2986 RMK A01 T03760006  RH  010%=      5-min Rain = 0
KCO1 152144Z 19010KT 38/01 A2986 RMK A01 T03750005  RH  010%=      5-min Rain = 0
KCO1 152145Z 16008KT 37/00 A2986 RMK A01 T03730004  RH  010%=      5-min Rain = 0
KCO1 152146Z 13011KT 37/00 A2986 RMK A01 T03720004  RH  010%=      5-min Rain = 0
KCO1 152147Z 13011KT 37/00 A2986 RMK A01 T03720004  RH  010%=      5-min Rain = 0
KCO1 152148Z 13005KT 37/01 A2986 RMK A01 T03730005  RH  010%=      5-min Rain = 0
KCO1 152149Z 16004KT 37/01 A2986 RMK A01 T03740005  RH  010%=      5-min Rain = 0
KCO1 152150Z 34006KT 37/01 A2986 RMK A01 T03730005  RH  010%=      5-min Rain = 0
KCO1 152151Z 09009KT 37/00 A2986 RMK A01 T03700002  RH  010%=      5-min Rain = 0
KCO1 152152Z 09007KT 37/00 A2986 RMK A01 T03680002  RH  010%=      5-min Rain = 0
KCO1 152153Z 11008KT 37/00 A2986 RMK A01 T03670003  RH  010%=      5-min Rain = 0
KCO1 152154Z 12008KT 37/00 A2986 RMK A01 T03670003  RH  010%=      5-min Rain = 0
KCO1 152155Z 13006KT 37/00 A2986 RMK A01 T03670003  RH  010%=      5-min Rain = 0
KCO1 152156Z 14006KT 37/00 A2986 RMK A01 T03690004  RH  010%=      5-min Rain = 0
KCO1 152157Z 12007KT 37/00 A2986 RMK A01 T03720004  RH  010%=      5-min Rain = 0
KCO1 152158Z 14006KT 37/00 A2986 RMK A01 T03740004  RH  010%=      5-min Rain = 0
KCO1 152159Z 15007KT 38/01 A2986 RMK A01 T03770006  RH  010%=      5-min Rain = 0
KCO1 152200Z 15007KT 38/01 A2986 RMK A01 T03800012  RH  010%=      5-min Rain = 0
KCO1 152201Z 16007G12KT 38/01 A2986 RMK A01 T03830013  RH  010%=      5-min Rain = 0
KCO1 152202Z 16011KT 38/01 A2986 RMK A01 T03820013  RH  010%=      5-min Rain = 0
KCO1 152203Z 15011KT 38/01 A2986 RMK A01 T03800013  RH  010%=      5-min Rain = 0
KCO1 152204Z 19010KT 38/01 A2986 RMK A01 T03800012  RH  010%=      5-min Rain = 0
KCO1 152205Z 18009KT 38/01 A2986 RMK A01 T03800012  RH  010%=      5-min Rain = 0
KCO1 152206Z 17008KT 38/01 A2986 RMK A01 T03810013  RH  010%=      5-min Rain = 0
KCO1 152207Z 17008KT 38/02 A2986 RMK A01 T03830015  RH  010%=      5-min Rain = 0
KCO1 152208Z 14011KT 39/01 A2986 RMK A01 T03850014  RH  010%=      5-min Rain = 0
KCO1 152209Z 15012KT 39/01 A2985 RMK A01 T03850012  RH  010%=      5-min Rain = 0
KCO1 152210Z 16011KT 39/01 A2985 RMK A01 T03870012  RH  010%=      5-min Rain = 0
KCO1 152211Z 16010KT 38/01 A2985 RMK A01 T03840009  RH  010%=      5-min Rain = 0
KCO1 152212Z 14010KT 38/01 A2986 RMK A01 T03800010  RH  010%=      5-min Rain = 0
KCO1 152213Z 15009KT 38/01 A2986 RMK A01 T03780008  RH  010%=      5-min Rain = 0
KCO1 152214Z 14008KT 38/01 A2985 RMK A01 T03750009  RH  010%=      5-min Rain = 0
KCO1 152215Z 18006KT 38/01 A2985 RMK A01 T03750011  RH  010%=      5-min Rain = 0
KCO1 152216Z 16006KT 38/01 A2985 RMK A01 T03760008  RH  010%=      5-min Rain = 0
KCO1 152217Z 15006KT 38/01 A2985 RMK A01 T03760009  RH  010%=      5-min Rain = 0
KCO1 152218Z 15005G10KT 38/01 A2985 RMK A01 T03750009  RH  010%=      5-min Rain = 0
KCO1 152219Z 15007KT 38/01 A2985 RMK A01 T03750010  RH  010%=      5-min Rain = 0
KCO1 152220Z 14007KT 38/01 A2985 RMK A01 T03750013  RH  010%=      5-min Rain = 0
KCO1 152221Z 14005KT 37/01 A2985 RMK A01 T03730014  RH  011%=      5-min Rain = 0
KCO1 152222Z 16005KT 37/02 A2985 RMK A01 T03740016  RH  011%=      5-min Rain = 0
KCO1 152223Z 15008KT 38/02 A2985 RMK A01 T03760019  RH  011%=      5-min Rain = 0
KCO1 152224Z 13007KT 38/02 A2985 RMK A01 T03790019  RH  011%=      5-min Rain = 0
KCO1 152225Z 13005KT 38/02 A2985 RMK A01 T03800018  RH  011%=      5-min Rain = 0
KCO1 152226Z 14007KT 38/02 A2985 RMK A01 T03790019  RH  011%=      5-min Rain = 0
KCO1 152227Z 15009KT 38/02 A2985 RMK A01 T03800019  RH  011%=      5-min Rain = 0
KCO1 152228Z 15007KT 38/02 A2985 RMK A01 T03770016  RH  011%=      5-min Rain = 0
KCO1 152229Z 15006KT 38/02 A2985 RMK A01 T03750017  RH  011%=      5-min Rain = 0
KCO1 152230Z 16007KT 37/02 A2985 RMK A01 T03730017  RH  011%=      5-min Rain = 0
KCO1 152231Z 14006KT 37/02 A2985 RMK A01 T03720019  RH  011%=      5-min Rain = 0
KCO1 152232Z 15004KT 37/02 A2985 RMK A01 T03720018  RH  011%=      5-min Rain = 0
KCO1 152233Z 14005KT 37/02 A2985 RMK A01 T03720017  RH  011%=      5-min Rain = 0
KCO1 152234Z 15004KT 37/02 A2985 RMK A01 T03720017  RH  011%=      5-min Rain = 0
KCO1 152235Z 17005KT 37/02 A2985 RMK A01 T03730018  RH  011%=      5-min Rain = 0
KCO1 152236Z 17005KT 37/02 A2985 RMK A01 T03740019  RH  011%=      5-min Rain = 0
KCO1 152237Z 19005KT 38/02 A2985 RMK A01 T03760019  RH  011%=      5-min Rain = 0
KCO1 152238Z 16005KT 38/02 A2985 RMK A01 T03760019  RH  011%=      5-min Rain = 0
KCO1 152239Z 14004KT 38/02 A2985 RMK A01 T03760019  RH  011%=      5-min Rain = 0
KCO1 152240Z 13004KT 37/02 A2985 RMK A01 T03740017  RH  011%=      5-min Rain = 0
KCO1 152241Z 13004KT 37/02 A2985 RMK A01 T03710016  RH  011%=      5-min Rain = 0
KCO1 152242Z 14006KT 37/02 A2985 RMK A01 T03690016  RH  011%=      5-min Rain = 0
KCO1 152243Z 14004KT 37/02 A2985 RMK A01 T03670017  RH  011%=      5-min Rain = 0
KCO1 152244Z 15004KT 37/02 A2985 RMK A01 T03680018  RH  011%=      5-min Rain = 0
KCO1 152245Z 15003KT 37/02 A2985 RMK A01 T03680017  RH  011%=      5-min Rain = 0
KCO1 152246Z 17004KT 37/02 A2985 RMK A01 T03670017  RH  011%=      5-min Rain = 0
KCO1 152247Z 13005KT 37/02 A2985 RMK A01 T03670018  RH  011%=      5-min Rain = 0
KCO1 152248Z 13004KT 37/02 A2985 RMK A01 T03670016  RH  011%=      5-min Rain = 0
KCO1 152249Z 11004KT 37/02 A2985 RMK A01 T03670018  RH  011%=      5-min Rain = 0
KCO1 152250Z 12003KT 37/02 A2985 RMK A01 T03670017  RH  011%=      5-min Rain = 0
KCO1 152251Z 13002KT 37/02 A2985 RMK A01 T03680018  RH  011%=      5-min Rain = 0
KCO1 152252Z 09002KT 37/02 A2985 RMK A01 T03690017  RH  011%=      5-min Rain = 0
KCO1 152253Z 07002KT 37/02 A2985 RMK A01 T03680016  RH  011%=      5-min Rain = 0
KCO1 152254Z 07002KT 37/02 A2985 RMK A01 T03670016  RH  011%=      5-min Rain = 0
KCO1 152255Z 07001KT 37/02 A2985 RMK A01 T03660016  RH  011%=      5-min Rain = 0
KCO1 152256Z 06001KT 37/02 A2985 RMK A01 T03650015  RH  011%=      5-min Rain = 0
KCO1 152257Z 20000KT 36/02 A2985 RMK A01 T03640015  RH  011%=      5-min Rain = 0
KCO1 152258Z 18000KT 37/02 A2985 RMK A01 T03660016  RH  011%=      5-min Rain = 0
KCO1 152259Z 19001KT 37/02 A2985 RMK A01 T03690017  RH  011%=      5-min Rain = 0
KCO1 152300Z 19001KT 37/02 A2985 RMK A01 T03700016  RH  011%=      5-min Rain = 0
KCO1 152301Z 14002KT 37/02 A2985 RMK A01 T03720017  RH  011%=      5-min Rain = 0
KCO1 152302Z 14004KT 37/02 A2985 RMK A01 T03740018  RH  011%=      5-min Rain = 0
KCO1 152303Z 14003KT 38/02 A2985 RMK A01 T03750016  RH  011%=      5-min Rain = 0
KCO1 152304Z 16002KT 38/02 A2985 RMK A01 T03760016  RH  011%=      5-min Rain = 0
KCO1 152305Z 19002KT 38/02 A2985 RMK A01 T03760015  RH  011%=      5-min Rain = 0
KCO1 152306Z 15004KT 38/02 A2985 RMK A01 T03760016  RH  011%=      5-min Rain = 0
KCO1 152307Z 15005KT 38/02 A2985 RMK A01 T03760017  RH  011%=      5-min Rain = 0
KCO1 152308Z 14003KT 38/02 A2985 RMK A01 T03770017  RH  011%=      5-min Rain = 0
KCO1 152309Z 15003KT 38/02 A2984 RMK A01 T03760017  RH  011%=      5-min Rain = 0
KCO1 152310Z 14005KT 38/02 A2984 RMK A01 T03770017  RH  011%=      5-min Rain = 0
KCO1 152311Z 11004KT 38/02 A2984 RMK A01 T03770016  RH  011%=      5-min Rain = 0
KCO1 152312Z 10004KT 38/02 A2984 RMK A01 T03750017  RH  011%=      5-min Rain = 0
KCO1 152313Z 08003KT 37/01 A2984 RMK A01 T03730014  RH  011%=      5-min Rain = 0
KCO1 152314Z 16002KT 37/02 A2984 RMK A01 T03730017  RH  011%=      5-min Rain = 0
KCO1 152315Z 15002KT 37/02 A2984 RMK A01 T03740016  RH  011%=      5-min Rain = 0
KCO1 152316Z 11002KT 38/02 A2984 RMK A01 T03750017  RH  011%=      5-min Rain = 0
KCO1 152317Z 18001KT 38/02 A2984 RMK A01 T03750016  RH  011%=      5-min Rain = 0
KCO1 152318Z 19001KT 38/02 A2984 RMK A01 T03760016  RH  011%=      5-min Rain = 0
KCO1 152319Z 04000KT 38/02 A2984 RMK A01 T03760016  RH  011%=      5-min Rain = 0
KCO1 152320Z 03002KT 38/02 A2984 RMK A01 T03760015  RH  011%=      5-min Rain = 0
KCO1 152321Z 05002KT 37/02 A2984 RMK A01 T03740015  RH  011%=      5-min Rain = 0
KCO1 152322Z 05003KT 37/02 A2984 RMK A01 T03720015  RH  011%=      5-min Rain = 0
KCO1 152323Z 03004KT 37/02 A2984 RMK A01 T03700015  RH  011%=      5-min Rain = 0
KCO1 152324Z 03004KT 37/02 A2984 RMK A01 T03690015  RH  011%=      5-min Rain = 0
KCO1 152325Z 06005KT 37/01 A2984 RMK A01 T03670014  RH  011%=      5-min Rain = 0
KCO1 152326Z 08002KT 37/02 A2984 RMK A01 T03660015  RH  011%=      5-min Rain = 0
KCO1 152327Z 09001KT 37/01 A2984 RMK A01 T03650014  RH  011%=      5-min Rain = 0
KCO1 152328Z 08000KT 37/01 A2984 RMK A01 T03650014  RH  011%=      5-min Rain = 0
KCO1 152329Z 04001KT 37/01 A2983 RMK A01 T03660014  RH  011%=      5-min Rain = 0
KCO1 152330Z 04003KT 37/02 A2983 RMK A01 T03660015  RH  011%=      5-min Rain = 0
KCO1 152331Z 03003KT 37/01 A2983 RMK A01 T03660013  RH  011%=      5-min Rain = 0
KCO1 152332Z 34001KT 37/01 A2983 RMK A01 T03650013  RH  011%=      5-min Rain = 0
KCO1 152333Z 33001KT 37/01 A2983 RMK A01 T03650013  RH  011%=      5-min Rain = 0
KCO1 152334Z 31000KT 37/02 A2983 RMK A01 T03650015  RH  011%=      5-min Rain = 0
KCO1 152335Z 17002KT 37/01 A2983 RMK A01 T03650014  RH  011%=      5-min Rain = 0
KCO1 152336Z 16002KT 37/02 A2983 RMK A01 T03650015  RH  011%=      5-min Rain = 0
KCO1 152337Z 18002KT 37/02 A2983 RMK A01 T03660015  RH  011%=      5-min Rain = 0
KCO1 152338Z 18004KT 37/01 A2983 RMK A01 T03660014  RH  011%=      5-min Rain = 0
KCO1 152339Z 16005KT 37/01 A2983 RMK A01 T03660013  RH  011%=      5-min Rain = 0
KCO1 152340Z 17005KT 37/01 A2983 RMK A01 T03660013  RH  011%=      5-min Rain = 0
KCO1 152341Z 15004KT 37/01 A2983 RMK A01 T03660013  RH  011%=      5-min Rain = 0
KCO1 152342Z 17003KT 37/01 A2983 RMK A01 T03670014  RH  011%=      5-min Rain = 0
KCO1 152343Z 17002KT 37/02 A2983 RMK A01 T03700016  RH  011%=      5-min Rain = 0
KCO1 152344Z 18002KT 37/02 A2983 RMK A01 T03720015  RH  011%=      5-min Rain = 0
KCO1 152345Z 18002KT 37/02 A2983 RMK A01 T03730015  RH  011%=      5-min Rain = 0
KCO1 152346Z 16003KT 37/01 A2983 RMK A01 T03730014  RH  011%=      5-min Rain = 0
KCO1 152347Z 15004KT 37/01 A2983 RMK A01 T03720012  RH  011%=      5-min Rain = 0
KCO1 152348Z 15003KT 37/01 A2983 RMK A01 T03700011  RH  011%=      5-min Rain = 0
KCO1 152349Z 14002KT 37/01 A2983 RMK A01 T03690011  RH  011%=      5-min Rain = 0
KCO1 152350Z 16002KT 37/01 A2983 RMK A01 T03680011  RH  011%=      5-min Rain = 0
KCO1 152351Z 16001KT 37/01 A2983 RMK A01 T03680010  RH  011%=      5-min Rain = 0
KCO1 152352Z 15000KT 37/01 A2983 RMK A01 T03680009  RH  011%=      5-min Rain = 0
KCO1 152353Z 17002KT 37/01 A2983 RMK A01 T03700011  RH  011%=      5-min Rain = 0
KCO1 152354Z 17001KT 37/01 A2983 RMK A01 T03710010  RH  010%=      5-min Rain = 0
KCO1 152355Z 20001KT 37/01 A2983 RMK A01 T03730011  RH  010%=      5-min Rain = 0
KCO1 152356Z 12001KT 38/01 A2983 RMK A01 T03750010  RH  010%=      5-min Rain = 0
KCO1 152357Z 11003KT 37/01 A2983 RMK A01 T03740010  RH  010%=      5-min Rain = 0
KCO1 152358Z 11001KT 37/01 A2983 RMK A01 T03730010  RH  010%=      5-min Rain = 0
KCO1 152359Z 14001KT 37/01 A2983 RMK A01 T03720010  RH  010%=      5-min Rain = 0
KCO1 160000Z 16001KT 37/01 A2983 RMK A01 T03720011  RH  010%=      5-min Rain = 0
KCO1 160001Z 20001KT 37/01 A2983 RMK A01 T03710012  RH  011%=      5-min Rain = 0
KCO1 160002Z 21002KT 37/01 A2983 RMK A01 T03700012  RH  011%=      5-min Rain = 0
KCO1 160003Z 22002KT 37/01 A2983 RMK A01 T03710012  RH  011%=      5-min Rain = 0
KCO1 160004Z 24003KT 37/01 A2983 RMK A01 T03710012  RH  011%=      5-min Rain = 0
KCO1 160005Z 24003KT 37/01 A2983 RMK A01 T03710011  RH  011%=      5-min Rain = 0
KCO1 160006Z 23004KT 37/01 A2983 RMK A01 T03710012  RH  011%=      5-min Rain = 0
KCO1 160007Z 23004KT 37/01 A2982 RMK A01 T03720012  RH  010%=      5-min Rain = 0
KCO1 160008Z 23004KT 37/01 A2982 RMK A01 T03710012  RH  011%=      5-min Rain = 0
KCO1 160009Z 23004KT 37/01 A2982 RMK A01 T03720012  RH  011%=      5-min Rain = 0
KCO1 160010Z 24004KT 37/01 A2982 RMK A01 T03720010  RH  010%=      5-min Rain = 0
KCO1 160011Z 23003KT 37/01 A2982 RMK A01 T03710010  RH  010%=      5-min Rain = 0
KCO1 160012Z 24002KT 37/01 A2982 RMK A01 T03720010  RH  010%=      5-min Rain = 0
KCO1 160013Z 21003KT 37/01 A2982 RMK A01 T03720011  RH  010%=      5-min Rain = 0
KCO1 160014Z 22004KT 37/01 A2982 RMK A01 T03720013  RH  011%=      5-min Rain = 0
KCO1 160015Z 24003KT 37/01 A2982 RMK A01 T03740010  RH  010%=      5-min Rain = 0
KCO1 160016Z 24003KT 37/01 A2982 RMK A01 T03730009  RH  010%=      5-min Rain = 0
KCO1 160017Z 21001KT 37/01 A2982 RMK A01 T03730009  RH  010%=      5-min Rain = 0
KCO1 160018Z 17001KT 37/01 A2982 RMK A01 T03730010  RH  010%=      5-min Rain = 0
KCO1 160019Z 16002KT 37/01 A2982 RMK A01 T03730009  RH  010%=      5-min Rain = 0
KCO1 160020Z 16004KT 37/01 A2982 RMK A01 T03730010  RH  010%=      5-min Rain = 0
KCO1 160021Z 16002KT 37/01 A2982 RMK A01 T03720009  RH  010%=      5-min Rain = 0
KCO1 160022Z 17002KT 37/01 A2982 RMK A01 T03720010  RH  010%=      5-min Rain = 0
KCO1 160023Z 15003KT 37/01 A2982 RMK A01 T03720010  RH  010%=      5-min Rain = 0
KCO1 160024Z 16003KT 37/01 A2982 RMK A01 T03730009  RH  010%=      5-min Rain = 0
KCO1 160025Z 16003KT 37/01 A2982 RMK A01 T03720008  RH  010%=      5-min Rain = 0
KCO1 160026Z 21004KT 37/01 A2982 RMK A01 T03710008  RH  010%=      5-min Rain = 0
KCO1 160027Z 28005KT 37/01 A2982 RMK A01 T03700008  RH  010%=      5-min Rain = 0
KCO1 160028Z 31005KT 37/01 A2982 RMK A01 T03690008  RH  010%=      5-min Rain = 0
KCO1 160029Z 30007KT 37/01 A2982 RMK A01 T03690008  RH  010%=      5-min Rain = 0
KCO1 160030Z 31006KT 37/01 A2982 RMK A01 T03680006  RH  010%=      5-min Rain = 0
KCO1 160031Z 31005KT 37/01 A2982 RMK A01 T03670006  RH  010%=      5-min Rain = 0
KCO1 160032Z 31004KT 37/01 A2982 RMK A01 T03660006  RH  010%=      5-min Rain = 0
KCO1 160033Z 31004KT 36/00 A2982 RMK A01 T03640004  RH  010%=      5-min Rain = 0
KCO1 160034Z 31005KT 36/01 A2982 RMK A01 T03630005  RH  010%=      5-min Rain = 0
KCO1 160035Z 31004KT 36/01 A2982 RMK A01 T03620005  RH  011%=      5-min Rain = 0
KCO1 160036Z 31003KT 36/01 A2982 RMK A01 T03620005  RH  011%=      5-min Rain = 0
KCO1 160037Z 31003KT 36/01 A2982 RMK A01 T03620005  RH  011%=      5-min Rain = 0
KCO1 160038Z 31003KT 36/01 A2982 RMK A01 T03620006  RH  011%=      5-min Rain = 0
KCO1 160039Z 30003KT 36/01 A2982 RMK A01 T03620006  RH  011%=      5-min Rain = 0
KCO1 160040Z 30003KT 36/00 A2982 RMK A01 T03620004  RH  011%=      5-min Rain = 0
KCO1 160041Z 29003KT 36/01 A2982 RMK A01 T03630005  RH  011%=      5-min Rain = 0
KCO1 160042Z 30003KT 36/00 A2982 RMK A01 T03630004  RH  010%=      5-min Rain = 0
KCO1 160043Z 29003KT 36/00 A2982 RMK A01 T03640004  RH  010%=      5-min Rain = 0
KCO1 160044Z 30002KT 37/00 A2982 RMK A01 T03650004  RH  010%=      5-min Rain = 0
KCO1 160045Z 28002KT 37/01 A2982 RMK A01 T03650005  RH  010%=      5-min Rain = 0
KCO1 160046Z 27003KT 37/01 A2982 RMK A01 T03660007  RH  011%=      5-min Rain = 0
KCO1 160047Z 27003KT 37/01 A2982 RMK A01 T03660007  RH  010%=      5-min Rain = 0
KCO1 160048Z 28002KT 37/01 A2982 RMK A01 T03660007  RH  010%=      5-min Rain = 0
KCO1 160049Z 28002KT 37/01 A2982 RMK A01 T03660006  RH  010%=      5-min Rain = 0
KCO1 160050Z 28001KT 37/01 A2982 RMK A01 T03660007  RH  010%=      5-min Rain = 0
KCO1 160051Z 28001KT 37/01 A2982 RMK A01 T03660007  RH  010%=      5-min Rain = 0
KCO1 160052Z 28000KT 37/01 A2982 RMK A01 T03670006  RH  010%=      5-min Rain = 0
KCO1 160053Z 26001KT 37/01 A2982 RMK A01 T03680008  RH  010%=      5-min Rain = 0
KCO1 160054Z 26001KT 37/01 A2982 RMK A01 T03690008  RH  010%=      5-min Rain = 0
KCO1 160055Z 26000KT 37/01 A2982 RMK A01 T03690006  RH  010%=      5-min Rain = 0
KCO1 160056Z 26000KT 37/01 A2982 RMK A01 T03680005  RH  010%=      5-min Rain = 0
KCO1 160057Z 00000KT 37/01 A2982 RMK A01 T03680005  RH  010%=      5-min Rain = 0
KCO1 160058Z 26001KT 37/01 A2982 RMK A01 T03680005  RH  010%=      5-min Rain = 0
KCO1 160059Z 26001KT 37/01 A2982 RMK A01 T03670006  RH  010%=      5-min Rain = 0
KCO1 160100Z 26001KT 37/01 A2982 RMK A01 T03660005  RH  010%=      5-min Rain = 0
KCO1 160101Z 26001KT 37/01 A2982 RMK A01 T03650005  RH  010%=      5-min Rain = 0
KCO1 160102Z 24000KT 36/01 A2982 RMK A01 T03640007  RH  011%=      5-min Rain = 0
KCO1 160103Z 17001KT 36/01 A2982 RMK A01 T03620011  RH  011%=      5-min Rain = 0
KCO1 160104Z 12002KT 36/01 A2982 RMK A01 T03600007  RH  011%=      5-min Rain = 0
KCO1 160105Z 12003KT 36/01 A2982 RMK A01 T03590007  RH  011%=      5-min Rain = 0
KCO1 160106Z 10002KT 36/01 A2982 RMK A01 T03580007  RH  011%=      5-min Rain = 0
KCO1 160107Z 30003KT 36/01 A2982 RMK A01 T03570007  RH  011%=      5-min Rain = 0
KCO1 160108Z 30002KT 36/01 A2982 RMK A01 T03570006  RH  011%=      5-min Rain = 0
KCO1 160109Z 28003KT 36/01 A2983 RMK A01 T03580007  RH  011%=      5-min Rain = 0
KCO1 160110Z 24003KT 36/01 A2983 RMK A01 T03580008  RH  011%=      5-min Rain = 0
KCO1 160111Z 21002KT 36/01 A2983 RMK A01 T03570009  RH  011%=      5-min Rain = 0
KCO1 160112Z 19001KT 36/01 A2983 RMK A01 T03560010  RH  011%=      5-min Rain = 0
KCO1 160113Z 22002KT 35/01 A2983 RMK A01 T03540010  RH  011%=      5-min Rain = 0
KCO1 160114Z 23002KT 35/01 A2983 RMK A01 T03540010  RH  011%=      5-min Rain = 0
KCO1 160115Z 20002KT 35/01 A2983 RMK A01 T03530010  RH  012%=      5-min Rain = 0
KCO1 160116Z 19001KT 35/01 A2983 RMK A01 T03530010  RH  011%=      5-min Rain = 0
KCO1 160117Z 17001KT 35/01 A2983 RMK A01 T03520009  RH  011%=      5-min Rain = 0
KCO1 160118Z 14001KT 35/01 A2983 RMK A01 T03520009  RH  012%=      5-min Rain = 0
KCO1 160119Z 14001KT 35/01 A2983 RMK A01 T03510009  RH  012%=      5-min Rain = 0
KCO1 160120Z 15001KT 35/01 A2983 RMK A01 T03510010  RH  012%=      5-min Rain = 0
KCO1 160121Z 14000KT 35/01 A2983 RMK A01 T03510010  RH  012%=      5-min Rain = 0
KCO1 160122Z 00000KT 35/01 A2983 RMK A01 T03510009  RH  012%=      5-min Rain = 0
KCO1 160123Z 00000KT 35/01 A2983 RMK A01 T03500010  RH  012%=      5-min Rain = 0
KCO1 160124Z 00000KT 35/01 A2983 RMK A01 T03490010  RH  012%=      5-min Rain = 0
KCO1 160125Z 14000KT 35/01 A2983 RMK A01 T03480009  RH  012%=      5-min Rain = 0
KCO1 160126Z 14001KT 35/01 A2983 RMK A01 T03470010  RH  012%=      5-min Rain = 0
KCO1 160127Z 14001KT 35/01 A2983 RMK A01 T03460013  RH  012%=      5-min Rain = 0
KCO1 160128Z 27000KT 35/01 A2983 RMK A01 T03450013  RH  012%=      5-min Rain = 0
KCO1 160129Z 28001KT 35/01 A2983 RMK A01 T03450011  RH  012%=      5-min Rain = 0
KCO1 160130Z 28001KT 34/01 A2983 RMK A01 T03440011  RH  012%=      5-min Rain = 0
KCO1 160131Z 28001KT 34/01 A2983 RMK A01 T03440012  RH  012%=      5-min Rain = 0
KCO1 160132Z 28001KT 34/01 A2983 RMK A01 T03430012  RH  012%=      5-min Rain = 0
KCO1 160133Z 28001KT 34/01 A2983 RMK A01 T03430013  RH  012%=      5-min Rain = 0
KCO1 160134Z 28001KT 34/01 A2983 RMK A01 T03420013  RH  012%=      5-min Rain = 0
KCO1 160135Z 28001KT 34/01 A2983 RMK A01 T03410011  RH  012%=      5-min Rain = 0
KCO1 160136Z 28000KT 34/01 A2983 RMK A01 T03390010  RH  012%=      5-min Rain = 0
KCO1 160137Z 00000KT 34/01 A2983 RMK A01 T03380009  RH  012%=      5-min Rain = 0
KCO1 160138Z 28000KT 34/01 A2983 RMK A01 T03380008  RH  012%=      5-min Rain = 0
KCO1 160139Z 28000KT 34/01 A2983 RMK A01 T03380009  RH  012%=      5-min Rain = 0
KCO1 160140Z 00000KT 34/01 A2983 RMK A01 T03370011  RH  013%=      5-min Rain = 0
KCO1 160141Z 00000KT 34/01 A2983 RMK A01 T03350011  RH  013%=      5-min Rain = 0
KCO1 160142Z 00000KT 33/01 A2983 RMK A01 T03340012  RH  013%=      5-min Rain = 0
KCO1 160143Z 00000KT 33/01 A2983 RMK A01 T03330012  RH  013%=      5-min Rain = 0
KCO1 160144Z 00000KT 33/01 A2983 RMK A01 T03310012  RH  013%=      5-min Rain = 0
KCO1 160145Z 00000KT 33/01 A2983 RMK A01 T03310010  RH  013%=      5-min Rain = 0
KCO1 160146Z 00000KT 33/01 A2983 RMK A01 T03320010  RH  013%=      5-min Rain = 0
KCO1 160147Z 00000KT 33/01 A2983 RMK A01 T03320012  RH  013%=      5-min Rain = 0
KCO1 160148Z 28000KT 33/01 A2983 RMK A01 T03300013  RH  013%=      5-min Rain = 0
KCO1 160149Z 28000KT 33/01 A2983 RMK A01 T03260012  RH  014%=      5-min Rain = 0
KCO1 160150Z 28000KT 32/01 A2983 RMK A01 T03230011  RH  014%=      5-min Rain = 0
KCO1 160151Z 28000KT 32/01 A2983 RMK A01 T03190011  RH  014%=      5-min Rain = 0
KCO1 160152Z 28001KT 32/01 A2983 RMK A01 T03160012  RH  014%=      5-min Rain = 0
KCO1 160153Z 28001KT 31/01 A2983 RMK A01 T03140013  RH  015%=      5-min Rain = 0
KCO1 160154Z 28001KT 31/01 A2983 RMK A01 T03120014  RH  015%=      5-min Rain = 0
KCO1 160155Z 28001KT 31/02 A2983 RMK A01 T03110017  RH  015%=      5-min Rain = 0
KCO1 160156Z 28000KT 31/02 A2983 RMK A01 T03090017  RH  015%=      5-min Rain = 0
KCO1 160157Z 23001KT 31/02 A2983 RMK A01 T03090017  RH  015%=      5-min Rain = 0
KCO1 160158Z 23002KT 31/02 A2983 RMK A01 T03090016  RH  015%=      5-min Rain = 0
KCO1 160159Z 23002KT 31/01 A2983 RMK A01 T03090013  RH  015%=      5-min Rain = 0
KCO1 160200Z 22002KT 31/01 A2983 RMK A01 T03080013  RH  015%=      5-min Rain = 0
KCO1 160201Z 21003KT 31/01 A2983 RMK A01 T03080011  RH  015%=      5-min Rain = 0
KCO1 160202Z 20005KT 31/01 A2984 RMK A01 T03070011  RH  015%=      5-min Rain = 0
KCO1 160203Z 21004KT 31/01 A2984 RMK A01 T03060013  RH  015%=      5-min Rain = 0
KCO1 160204Z 20004KT 31/02 A2984 RMK A01 T03060015  RH  016%=      5-min Rain = 0
KCO1 160205Z 20003KT 31/02 A2984 RMK A01 T03070017  RH  016%=      5-min Rain = 0
KCO1 160206Z 20002KT 31/02 A2984 RMK A01 T03070019  RH  016%=      5-min Rain = 0
KCO1 160207Z 21002KT 31/02 A2983 RMK A01 T03060017  RH  016%=      5-min Rain = 0
KCO1 160208Z 20003KT 31/02 A2983 RMK A01 T03050016  RH  016%=      5-min Rain = 0
KCO1 160209Z 21003KT 30/01 A2984 RMK A01 T03040014  RH  016%=      5-min Rain = 0
KCO1 160210Z 21003KT 30/01 A2984 RMK A01 T03030014  RH  016%=      5-min Rain = 0
KCO1 160211Z 20003KT 30/01 A2984 RMK A01 T03020013  RH  016%=      5-min Rain = 0
KCO1 160212Z 20004KT 30/01 A2984 RMK A01 T03020013  RH  016%=      5-min Rain = 0
KCO1 160213Z 20004KT 30/01 A2984 RMK A01 T03020014  RH  016%=      5-min Rain = 0
KCO1 160214Z 20005KT 30/01 A2984 RMK A01 T03010013  RH  016%=      5-min Rain = 0
KCO1 160215Z 21005KT 30/01 A2984 RMK A01 T03000014  RH  016%=      5-min Rain = 0
KCO1 160216Z 21005KT 30/01 A2984 RMK A01 T02990014  RH  016%=      5-min Rain = 0
KCO1 160217Z 21006KT 30/02 A2984 RMK A01 T03000015  RH  016%=      5-min Rain = 0
KCO1 160218Z 21006KT 30/02 A2984 RMK A01 T03040015  RH  016%=      5-min Rain = 0
KCO1 160219Z 21006KT 31/02 A2984 RMK A01 T03050015  RH  016%=      5-min Rain = 0
KCO1 160220Z 20005KT 30/01 A2984 RMK A01 T03030013  RH  016%=      5-min Rain = 0
KCO1 160221Z 20005KT 30/01 A2984 RMK A01 T03010013  RH  016%=      5-min Rain = 0
KCO1 160222Z 20005KT 30/01 A2984 RMK A01 T02990012  RH  016%=      5-min Rain = 0
KCO1 160223Z 20007KT 30/01 A2984 RMK A01 T02990012  RH  016%=      5-min Rain = 0
KCO1 160224Z 21005KT 30/01 A2984 RMK A01 T02980012  RH  016%=      5-min Rain = 0
KCO1 160225Z 20005KT 30/01 A2984 RMK A01 T02990013  RH  016%=      5-min Rain = 0
KCO1 160226Z 20005KT 30/01 A2984 RMK A01 T02990013  RH  016%=      5-min Rain = 0
KCO1 160227Z 20006KT 30/01 A2984 RMK A01 T02980013  RH  016%=      5-min Rain = 0
KCO1 160228Z 20005KT 30/01 A2984 RMK A01 T02970013  RH  016%=      5-min Rain = 0
KCO1 160229Z 20005KT 30/01 A2984 RMK A01 T02950013  RH  016%=      5-min Rain = 0
KCO1 160230Z 21005KT 29/01 A2984 RMK A01 T02930014  RH  017%=      5-min Rain = 0
KCO1 160231Z 21005KT 29/02 A2984 RMK A01 T02930015  RH  017%=      5-min Rain = 0
KCO1 160232Z 21005KT 29/02 A2984 RMK A01 T02930015  RH  017%=      5-min Rain = 0
KCO1 160233Z 21005KT 29/02 A2984 RMK A01 T02940015  RH  017%=      5-min Rain = 0
KCO1 160234Z 21005KT 29/02 A2984 RMK A01 T02930016  RH  017%=      5-min Rain = 0
KCO1 160235Z 20005KT 29/02 A2984 RMK A01 T02940018  RH  017%=      5-min Rain = 0
KCO1 160236Z 21005KT 29/02 A2984 RMK A01 T02940019  RH  017%=      5-min Rain = 0
KCO1 160237Z 20005KT 29/02 A2984 RMK A01 T02940019  RH  017%=      5-min Rain = 0
KCO1 160238Z 20004KT 29/02 A2984 RMK A01 T02940019  RH  017%=      5-min Rain = 0
KCO1 160239Z 21005KT 29/02 A2985 RMK A01 T02930020  RH  017%=      5-min Rain = 0
KCO1 160240Z 20005KT 29/02 A2985 RMK A01 T02930020  RH  017%=      5-min Rain = 0
KCO1 160241Z 20005KT 29/02 A2985 RMK A01 T02920020  RH  017%=      5-min Rain = 0
KCO1 160242Z 21005KT 29/02 A2985 RMK A01 T02920020  RH  017%=      5-min Rain = 0
KCO1 160243Z 21005KT 29/02 A2985 RMK A01 T02910020  RH  017%=      5-min Rain = 0
KCO1 160244Z 21005KT 29/02 A2985 RMK A01 T02900019  RH  018%=      5-min Rain = 0
KCO1 160245Z 20005KT 29/02 A2985 RMK A01 T02890019  RH  018%=      5-min Rain = 0
KCO1 160246Z 20005KT 29/02 A2985 RMK A01 T02880020  RH  018%=      5-min Rain = 0
KCO1 160247Z 20005KT 29/02 A2985 RMK A01 T02870020  RH  018%=      5-min Rain = 0
KCO1 160248Z 20005KT 29/02 A2985 RMK A01 T02880021  RH  018%=      5-min Rain = 0
KCO1 160249Z 20005KT 29/02 A2985 RMK A01 T02870020  RH  018%=      5-min Rain = 0
KCO1 160250Z 20005KT 29/02 A2985 RMK A01 T02870020  RH  018%=      5-min Rain = 0
KCO1 160251Z 20005KT 29/02 A2985 RMK A01 T02860020  RH  018%=      5-min Rain = 0
KCO1 160252Z 20005KT 29/02 A2985 RMK A01 T02860020  RH  018%=      5-min Rain = 0
KCO1 160253Z 20005KT 29/02 A2985 RMK A01 T02850020  RH  018%=      5-min Rain = 0
KCO1 160254Z 21005KT 28/02 A2985 RMK A01 T02840019  RH  018%=      5-min Rain = 0
KCO1 160255Z 21005KT 28/02 A2985 RMK A01 T02840019  RH  018%=      5-min Rain = 0
KCO1 160256Z 21005KT 28/02 A2985 RMK A01 T02820018  RH  018%=      5-min Rain = 0
KCO1 160257Z 21004KT 28/02 A2985 RMK A01 T02810018  RH  018%=      5-min Rain = 0
KCO1 160258Z 21004KT 28/02 A2985 RMK A01 T02810018  RH  018%=      5-min Rain = 0
KCO1 160259Z 20004KT 28/02 A2985 RMK A01 T02800018  RH  018%=      5-min Rain = 0
KCO1 160300Z 20005KT 28/02 A2985 RMK A01 T02790018  RH  019%=      5-min Rain = 0
KCO1 160301Z 20005KT 28/02 A2985 RMK A01 T02780019  RH  019%=      5-min Rain = 0
KCO1 160302Z 20004KT 28/02 A2985 RMK A01 T02770018  RH  019%=      5-min Rain = 0
KCO1 160303Z 21005KT 28/02 A2986 RMK A01 T02760018  RH  019%=      5-min Rain = 0
KCO1 160304Z 21004KT 28/02 A2985 RMK A01 T02750018  RH  019%=      5-min Rain = 0
KCO1 160305Z 21004KT 28/02 A2985 RMK A01 T02750018  RH  019%=      5-min Rain = 0
KCO1 160306Z 21004KT 27/02 A2986 RMK A01 T02740017  RH  019%=      5-min Rain = 0
KCO1 160307Z 22003KT 27/02 A2986 RMK A01 T02740018  RH  019%=      5-min Rain = 0
KCO1 160308Z 22003KT 27/02 A2986 RMK A01 T02730018  RH  019%=      5-min Rain = 0
KCO1 160309Z 21003KT 27/02 A2986 RMK A01 T02720018  RH  019%=      5-min Rain = 0
KCO1 160310Z 21004KT 27/02 A2986 RMK A01 T02710019  RH  019%=      5-min Rain = 0
KCO1 160311Z 21004KT 27/02 A2986 RMK A01 T02700019  RH  020%=      5-min Rain = 0
KCO1 160312Z 20004KT 27/02 A2986 RMK A01 T02690018  RH  020%=      5-min Rain = 0
KCO1 160313Z 20004KT 27/02 A2986 RMK A01 T02680018  RH  020%=      5-min Rain = 0
KCO1 160314Z 20004KT 27/02 A2986 RMK A01 T02670019  RH  020%=      5-min Rain = 0
KCO1 160315Z 20005KT 27/02 A2986 RMK A01 T02660020  RH  020%=      5-min Rain = 0
KCO1 160316Z 20005KT 27/02 A2986 RMK A01 T02650020  RH  020%=      5-min Rain = 0
KCO1 160317Z 19005KT 26/02 A2986 RMK A01 T02640020  RH  020%=      5-min Rain = 0
KCO1 160318Z 19005KT 26/02 A2986 RMK A01 T02640020  RH  021%=      5-min Rain = 0
KCO1 160319Z 20005KT 26/02 A2986 RMK A01 T02630019  RH  021%=      5-min Rain = 0
KCO1 160320Z 20005KT 26/02 A2986 RMK A01 T02620020  RH  021%=      5-min Rain = 0
KCO1 160321Z 20004KT 26/02 A2986 RMK A01 T02610020  RH  021%=      5-min Rain = 0
KCO1 160322Z 20004KT 26/02 A2986 RMK A01 T02610021  RH  021%=      5-min Rain = 0
KCO1 160323Z 20005KT 26/02 A2986 RMK A01 T02600021  RH  021%=      5-min Rain = 0
KCO1 160324Z 20005KT 26/02 A2986 RMK A01 T02590021  RH  021%=      5-min Rain = 0
KCO1 160325Z 20005KT 26/02 A2986 RMK A01 T02590022  RH  021%=      5-min Rain = 0
KCO1 160326Z 20005KT 26/02 A2986 RMK A01 T02590023  RH  022%=      5-min Rain = 0
KCO1 160327Z 20005KT 26/02 A2986 RMK A01 T02590023  RH  022%=      5-min Rain = 0
KCO1 160328Z 20005KT 26/02 A2986 RMK A01 T02590023  RH  022%=      5-min Rain = 0
KCO1 160329Z 20005KT 26/02 A2986 RMK A01 T02590023  RH  022%=      5-min Rain = 0
KCO1 160330Z 20005KT 26/02 A2986 RMK A01 T02590023  RH  022%=      5-min Rain = 0
KCO1 160331Z 19005KT 26/02 A2986 RMK A01 T02590023  RH  022%=      5-min Rain = 0
KCO1 160332Z 18005KT 26/02 A2986 RMK A01 T02580023  RH  022%=      5-min Rain = 0
KCO1 160333Z 16006KT 26/02 A2986 RMK A01 T02580023  RH  022%=      5-min Rain = 0
KCO1 160334Z 13007KT 26/03 A2986 RMK A01 T02570025  RH  022%=      5-min Rain = 0
KCO1 160335Z 13008KT 26/03 A2986 RMK A01 T02550027  RH  023%=      5-min Rain = 0
KCO1 160336Z 14007KT 25/03 A2986 RMK A01 T02540026  RH  023%=      5-min Rain = 0
KCO1 160337Z 15006KT 25/03 A2986 RMK A01 T02540025  RH  023%=      5-min Rain = 0
KCO1 160338Z 16006KT 26/03 A2986 RMK A01 T02560027  RH  023%=      5-min Rain = 0
KCO1 160339Z 16007KT 26/03 A2987 RMK A01 T02590029  RH  022%=      5-min Rain = 0
KCO1 160340Z 15008KT 26/03 A2987 RMK A01 T02630032  RH  022%=      5-min Rain = 0
KCO1 160341Z 14008KT 27/03 A2987 RMK A01 T02670031  RH  022%=      5-min Rain = 0
KCO1 160342Z 15009KT 27/03 A2987 RMK A01 T02700029  RH  021%=      5-min Rain = 0
KCO1 160343Z 15009KT 27/03 A2987 RMK A01 T02690028  RH  021%=      5-min Rain = 0
KCO1 160344Z 15008KT 27/03 A2987 RMK A01 T02690027  RH  021%=      5-min Rain = 0
KCO1 160345Z 15008KT 27/03 A2987 RMK A01 T02690028  RH  021%=      5-min Rain = 0
KCO1 160346Z 15008KT 27/03 A2987 RMK A01 T02680029  RH  021%=      5-min Rain = 0
KCO1 160347Z 16009KT 27/03 A2987 RMK A01 T02690030  RH  021%=      5-min Rain = 0
KCO1 160348Z 16008KT 27/03 A2987 RMK A01 T02690032  RH  022%=      5-min Rain = 0
KCO1 160349Z 16008KT 27/03 A2987 RMK A01 T02710034  RH  022%=      5-min Rain = 0
KCO1 160350Z 17008KT 27/04 A2987 RMK A01 T02720035  RH  022%=      5-min Rain = 0
KCO1 160351Z 17008KT 27/04 A2987 RMK A01 T02720035  RH  022%=      5-min Rain = 0
KCO1 160352Z 17008KT 27/04 A2987 RMK A01 T02720035  RH  022%=      5-min Rain = 0
KCO1 160353Z 16008KT 27/04 A2987 RMK A01 T02720035  RH  022%=      5-min Rain = 0
KCO1 160354Z 16008KT 27/04 A2987 RMK A01 T02720036  RH  022%=      5-min Rain = 0
KCO1 160355Z 16007KT 27/04 A2987 RMK A01 T02710036  RH  022%=      5-min Rain = 0
KCO1 160356Z 16008KT 27/04 A2987 RMK A01 T02700036  RH  022%=      5-min Rain = 0
KCO1 160357Z 16009KT 27/04 A2987 RMK A01 T02690036  RH  022%=      5-min Rain = 0
KCO1 160358Z 16009KT 27/04 A2987 RMK A01 T02700037  RH  022%=      5-min Rain = 0
KCO1 160359Z 17009KT 27/04 A2987 RMK A01 T02710037  RH  022%=      5-min Rain = 0
KCO1 160400Z 17010KT 27/04 A2987 RMK A01 T02710037  RH  022%=      5-min Rain = 0
KCO1 160401Z 17010KT 27/04 A2987 RMK A01 T02720037  RH  022%=      5-min Rain = 0
KCO1 160402Z 16010KT 27/04 A2987 RMK A01 T02720037  RH  022%=      5-min Rain = 0
KCO1 160403Z 16010KT 27/04 A2987 RMK A01 T02720037  RH  022%=      5-min Rain = 0
KCO1 160404Z 17010KT 27/04 A2987 RMK A01 T02730038  RH  022%=      5-min Rain = 0
KCO1 160405Z 17010KT 27/04 A2987 RMK A01 T02730038  RH  022%=      5-min Rain = 0
KCO1 160406Z 17010KT 27/04 A2987 RMK A01 T02740038  RH  022%=      5-min Rain = 0
KCO1 160407Z 17009KT 28/04 A2987 RMK A01 T02750039  RH  022%=      5-min Rain = 0
KCO1 160408Z 17010KT 28/04 A2987 RMK A01 T02750038  RH  022%=      5-min Rain = 0
KCO1 160409Z 17009KT 28/04 A2987 RMK A01 T02760039  RH  022%=      5-min Rain = 0
KCO1 160410Z 17010KT 28/04 A2987 RMK A01 T02760040  RH  022%=      5-min Rain = 0
KCO1 160411Z 17011KT 28/04 A2987 RMK A01 T02770041  RH  022%=      5-min Rain = 0
KCO1 160412Z 18010KT 28/04 A2987 RMK A01 T02780043  RH  022%=      5-min Rain = 0
KCO1 160413Z 17010KT 28/04 A2987 RMK A01 T02800044  RH  022%=      5-min Rain = 0
KCO1 160414Z 18010KT 28/05 A2987 RMK A01 T02810046  RH  022%=      5-min Rain = 0
KCO1 160415Z 17011KT 28/05 A2987 RMK A01 T02820048  RH  022%=      5-min Rain = 0
KCO1 160416Z 18011KT 28/05 A2987 RMK A01 T02840049  RH  022%=      5-min Rain = 0
KCO1 160417Z 17011KT 29/05 A2987 RMK A01 T02850050  RH  022%=      5-min Rain = 0
KCO1 160418Z 18011KT 29/05 A2987 RMK A01 T02850050  RH  022%=      5-min Rain = 0
KCO1 160419Z 17011KT 29/05 A2987 RMK A01 T02850052  RH  023%=      5-min Rain = 0
KCO1 160420Z 18011KT 29/05 A2987 RMK A01 T02850053  RH  023%=      5-min Rain = 0
KCO1 160421Z 18011KT 29/05 A2987 RMK A01 T02860053  RH  023%=      5-min Rain = 0
KCO1 160422Z 18010KT 29/05 A2987 RMK A01 T02860053  RH  023%=      5-min Rain = 0
KCO1 160423Z 18011KT 29/05 A2987 RMK A01 T02860053  RH  023%=      5-min Rain = 0
KCO1 160424Z 18010KT 29/05 A2987 RMK A01 T02860052  RH  023%=      5-min Rain = 0
KCO1 160425Z 18010KT 29/05 A2987 RMK A01 T02850051  RH  023%=      5-min Rain = 0
KCO1 160426Z 18009KT 28/05 A2987 RMK A01 T02840050  RH  023%=      5-min Rain = 0
KCO1 160427Z 18010KT 28/05 A2987 RMK A01 T02830049  RH  023%=      5-min Rain = 0
KCO1 160428Z 18010KT 28/05 A2987 RMK A01 T02820050  RH  023%=      5-min Rain = 0
KCO1 160429Z 18010KT 28/05 A2987 RMK A01 T02810050  RH  023%=      5-min Rain = 0
KCO1 160430Z 18010KT 28/05 A2987 RMK A01 T02810050  RH  023%=      5-min Rain = 0
KCO1 160431Z 18009KT 28/05 A2987 RMK A01 T02800049  RH  023%=      5-min Rain = 0
KCO1 160432Z 18009KT 28/05 A2987 RMK A01 T02790050  RH  023%=      5-min Rain = 0
KCO1 160433Z 18008KT 28/05 A2987 RMK A01 T02780050  RH  023%=      5-min Rain = 0
KCO1 160434Z 19009KT 28/05 A2987 RMK A01 T02780050  RH  023%=      5-min Rain = 0
KCO1 160435Z 19010KT 28/05 A2987 RMK A01 T02770050  RH  024%=      5-min Rain = 0
KCO1 160436Z 19009KT 28/05 A2987 RMK A01 T02770050  RH  024%=      5-min Rain = 0
KCO1 160437Z 19009KT 28/05 A2987 RMK A01 T02750049  RH  024%=      5-min Rain = 0
KCO1 160438Z 18008KT 27/05 A2988 RMK A01 T02740049  RH  024%=      5-min Rain = 0
KCO1 160439Z 18008KT 27/05 A2988 RMK A01 T02720049  RH  024%=      5-min Rain = 0
KCO1 160440Z 18007KT 27/05 A2988 RMK A01 T02700049  RH  024%=      5-min Rain = 0
KCO1 160441Z 18007KT 27/05 A2988 RMK A01 T02690049  RH  024%=      5-min Rain = 0
KCO1 160442Z 16006KT 27/05 A2988 RMK A01 T02680049  RH  025%=      5-min Rain = 0
KCO1 160443Z 14005KT 27/05 A2988 RMK A01 T02680050  RH  025%=      5-min Rain = 0
KCO1 160444Z 12006KT 27/05 A2989 RMK A01 T02680052  RH  025%=      5-min Rain = 0
KCO1 160445Z 11009KT 27/05 A2989 RMK A01 T02680053  RH  025%=      5-min Rain = 0
KCO1 160446Z 08008KT 27/05 A2989 RMK A01 T02680050  RH  025%=      5-min Rain = 0
KCO1 160447Z 08008KT 27/05 A2989 RMK A01 T02680048  RH  024%=      5-min Rain = 0
KCO1 160448Z 08007KT 27/05 A2989 RMK A01 T02680047  RH  024%=      5-min Rain = 0
KCO1 160449Z 09007KT 27/05 A2989 RMK A01 T02680046  RH  024%=      5-min Rain = 0
KCO1 160450Z 09007KT 27/04 A2989 RMK A01 T02680044  RH  024%=      5-min Rain = 0
KCO1 160451Z 07003KT 27/04 A2989 RMK A01 T02680044  RH  024%=      5-min Rain = 0
KCO1 160452Z 09005KT 27/04 A2989 RMK A01 T02680044  RH  024%=      5-min Rain = 0
KCO1 160453Z 07004KT 27/04 A2989 RMK A01 T02670043  RH  024%=      5-min Rain = 0
KCO1 160454Z 09006G16KT 27/04 A2989 RMK A01 T02670044  RH  024%=      5-min Rain = 0
KCO1 160455Z 10012KT 27/05 A2989 RMK A01 T02660047  RH  024%=      5-min Rain = 0
KCO1 160456Z 11010KT 27/05 A2989 RMK A01 T02710052  RH  025%=      5-min Rain = 0
KCO1 160457Z 13009KT 27/05 A299 RMK A01 T02740052  RH  024%=      5-min Rain = 0
KCO1 160458Z 14010KT 28/05 A299 RMK A01 T02760054  RH  024%=      5-min Rain = 0
KCO1 160459Z 13006KT 28/06 A299 RMK A01 T02780057  RH  024%=      5-min Rain = 0

Page generated in 0.0891 seconds.